Time,TemperatureF,DewpointF,PressureIn,WindDirection,WindDirectionDegrees,WindSpeedMPH,WindSpeedGustMPH,Humidity,HourlyPrecipIn,Conditions,Clouds,dailyrainin,SolarRadiationWatts/m^2,SoftwareType,DateUTC
2013-08-05 00:01:00,78.6,74.1,30.02,SW,236,0.0,0.0,86,0.00,RA,,0.00,0.0,WeatherDisplay:10.37,2013-08-05 04:01:00,
2013-08-05 00:02:00,78.6,74.1,30.02,SW,236,0.0,0.0,86,0.00,RA,,0.00,0.0,WeatherDisplay:10.37,2013-08-05 04:02:00,
2013-08-05 00:06:00,78.6,74.1,30.03,SW,236,0.0,0.0,86,0.00,CLR,,0.00,0.0,WeatherDisplay:10.37,2013-08-05 04:06:00,
2013-08-05 00:07:00,78.6,74.1,30.03,SW,236,3.5,3.5,86,0.00,CLR,,0.00,0.0,WeatherDisplay:10.37,2013-08-05 04:07:00,
2013-08-05 00:11:00,78.6,74.1,30.03,SW,236,1.2,0.0,86,0.00,CLR,,0.00,0.0,WeatherDisplay:10.37,2013-08-05 04:11:00,
2013-08-05 00:12:00,78.6,74.1,30.03,SW,236,0.0,0.0,86,0.00,CLR,,0.00,0.0,WeatherDisplay:10.37,2013-08-05 04:12:00,
2013-08-05 00:13:00,78.5,74.0,30.03,SW,236,0.0,0.0,86,0.00,CLR,,0.00,0.0,WeatherDisplay:10.37,2013-08-05 04:13:00,
2013-08-05 00:16:00,78.5,74.0,30.03,SW,236,0.0,0.0,86,0.00,CLR,,0.00,0.0,WeatherDisplay:10.37,2013-08-05 04:16:00,
2013-08-05 00:17:00,78.5,74.0,30.03,SW,236,0.0,0.0,86,0.00,CLR,,0.00,0.0,WeatherDisplay:10.37,2013-08-05 04:17:00,
2013-08-05 00:18:00,78.5,74.0,30.03,SW,236,0.0,0.0,86,0.00,CLR,,0.00,0.0,WeatherDisplay:10.37,2013-08-05 04:18:00,
2013-08-05 00:21:00,78.5,74.0,30.03,SW,236,2.3,2.3,86,0.00,CLR,,0.00,0.0,WeatherDisplay:10.37,2013-08-05 04:21:00,
2013-08-05 00:22:00,78.5,74.0,30.03,SW,236,2.3,0.0,86,0.00,CLR,,0.00,0.0,WeatherDisplay:10.37,2013-08-05 04:22:00,
2013-08-05 00:23:00,78.5,74.0,30.03,SW,236,0.0,0.0,86,0.00,CLR,,0.00,0.0,WeatherDisplay:10.37,2013-08-05 04:23:00,
2013-08-05 00:27:00,78.5,74.0,30.03,SW,236,0.0,0.0,86,0.00,CLR,,0.00,0.0,WeatherDisplay:10.37,2013-08-05 04:27:00,
2013-08-05 00:28:00,78.4,73.9,30.03,SW,236,0.0,0.0,86,0.00,CLR,,0.00,0.0,WeatherDisplay:10.37,2013-08-05 04:28:00,
2013-08-05 00:29:00,78.4,73.9,30.03,SW,236,1.2,0.0,86,0.00,CLR,,0.00,0.0,WeatherDisplay:10.37,2013-08-05 04:29:00,
2013-08-05 00:32:00,78.4,73.9,30.03,SW,236,0.0,0.0,86,0.00,CLR,,0.00,0.0,WeatherDisplay:10.37,2013-08-05 04:32:00,
2013-08-05 00:33:00,78.4,73.9,30.03,SW,236,0.0,0.0,86,0.00,CLR,,0.00,0.0,WeatherDisplay:10.37,2013-08-05 04:33:00,
2013-08-05 00:34:00,78.4,73.9,30.03,SW,236,0.0,0.0,86,0.00,CLR,,0.00,0.0,WeatherDisplay:10.37,2013-08-05 04:34:00,
2013-08-05 00:37:00,78.3,73.8,30.03,SW,236,0.0,0.0,86,0.00,CLR,,0.00,0.0,WeatherDisplay:10.37,2013-08-05 04:37:00,
2013-08-05 00:38:00,78.3,73.8,30.02,SW,236,0.0,0.0,86,0.00,CLR,,0.00,0.0,WeatherDisplay:10.37,2013-08-05 04:38:00,
2013-08-05 00:39:00,78.3,73.8,30.03,SW,236,0.0,0.0,86,0.00,CLR,,0.00,0.0,WeatherDisplay:10.37,2013-08-05 04:39:00,
2013-08-05 00:43:00,78.2,73.7,30.03,SW,236,0.0,0.0,86,0.00,CLR,,0.00,0.0,WeatherDisplay:10.37,2013-08-05 04:43:00,
2013-08-05 00:44:00,78.2,73.7,30.03,SW,236,0.0,0.0,86,0.00,CLR,,0.00,0.0,WeatherDisplay:10.37,2013-08-05 04:44:00,
2013-08-05 00:45:00,78.2,73.7,30.03,SW,236,0.0,0.0,86,0.00,CLR,,0.00,0.0,WeatherDisplay:10.37,2013-08-05 04:45:00,
2013-08-05 00:48:00,78.1,73.6,30.03,SW,236,0.0,0.0,86,0.00,CLR,,0.00,0.0,WeatherDisplay:10.37,2013-08-05 04:48:00,
2013-08-05 00:49:00,78.1,73.6,30.03,SW,236,0.0,0.0,86,0.00,CLR,,0.00,0.0,WeatherDisplay:10.37,2013-08-05 04:49:00,
2013-08-05 00:50:00,78.1,73.6,30.03,SW,236,0.0,0.0,86,0.00,CLR,,0.00,0.0,WeatherDisplay:10.37,2013-08-05 04:50:00,
2013-08-05 00:53:00,78.1,73.6,30.03,SW,236,0.0,0.0,86,0.00,CLR,,0.00,0.0,WeatherDisplay:10.37,2013-08-05 04:53:00,
2013-08-05 00:54:00,78.1,73.6,30.03,SW,236,0.0,0.0,86,0.00,CLR,,0.00,0.0,WeatherDisplay:10.37,2013-08-05 04:54:00,
2013-08-05 00:55:00,78.0,73.5,30.03,SW,236,0.0,0.0,86,0.00,CLR,,0.00,0.0,WeatherDisplay:10.37,2013-08-05 04:55:00,
2013-08-05 00:58:00,78.0,73.5,30.02,SW,236,0.0,0.0,86,0.00,CLR,,0.00,0.0,WeatherDisplay:10.37,2013-08-05 04:58:00,
2013-08-05 00:59:00,78.0,73.5,30.02,SW,236,0.0,0.0,86,0.00,CLR,,0.00,0.0,WeatherDisplay:10.37,2013-08-05 04:59:00,
2013-08-05 01:00:00,78.0,73.5,30.02,SW,236,1.2,0.0,86,0.00,CLR,,0.00,0.0,WeatherDisplay:10.37,2013-08-05 05:00:00,
2013-08-05 01:03:00,77.9,73.4,30.02,SW,236,0.0,0.0,86,0.00,CLR,,0.00,0.0,WeatherDisplay:10.37,2013-08-05 05:03:00,
2013-08-05 01:04:00,77.9,73.4,30.02,SW,236,0.0,0.0,86,0.00,CLR,,0.00,0.0,WeatherDisplay:10.37,2013-08-05 05:04:00,
2013-08-05 01:05:00,77.8,73.3,30.02,SW,236,0.0,0.0,86,0.00,CLR,,0.00,0.0,WeatherDisplay:10.37,2013-08-05 05:05:00,
2013-08-05 01:06:00,77.8,73.3,30.02,SW,236,0.0,0.0,86,0.00,CLR,,0.00,0.0,WeatherDisplay:10.37,2013-08-05 05:06:00,
2013-08-05 01:08:00,77.8,73.3,30.02,SW,236,0.0,0.0,86,0.00,CLR,,0.00,0.0,WeatherDisplay:10.37,2013-08-05 05:08:00,
2013-08-05 01:09:00,77.8,73.3,30.02,SW,236,0.0,0.0,86,0.00,CLR,,0.00,0.0,WeatherDisplay:10.37,2013-08-05 05:09:00,
2013-08-05 01:10:00,77.8,73.3,30.02,SW,236,0.0,0.0,86,0.00,CLR,,0.00,0.0,WeatherDisplay:10.37,2013-08-05 05:10:00,
2013-08-05 01:12:00,77.8,73.3,30.02,SW,236,0.0,0.0,86,0.00,CLR,,0.00,0.0,WeatherDisplay:10.37,2013-08-05 05:12:00,
2013-08-05 01:13:00,77.7,73.2,30.02,SW,236,0.0,0.0,86,0.00,CLR,,0.00,0.0,WeatherDisplay:10.37,2013-08-05 05:13:00,
2013-08-05 01:14:00,77.7,73.2,30.02,SW,236,0.0,0.0,86,0.00,CLR,,0.00,0.0,WeatherDisplay:10.37,2013-08-05 05:14:00,
2013-08-05 01:15:00,77.7,73.2,30.02,SW,236,0.0,0.0,86,0.00,CLR,,0.00,0.0,WeatherDisplay:10.37,2013-08-05 05:15:00,
2013-08-05 01:18:00,77.7,73.2,30.02,SW,236,0.0,0.0,86,0.00,CLR,,0.00,0.0,WeatherDisplay:10.37,2013-08-05 05:18:00,
2013-08-05 01:19:00,77.6,73.1,30.02,SW,236,0.0,0.0,86,0.00,CLR,,0.00,0.0,WeatherDisplay:10.37,2013-08-05 05:19:00,
2013-08-05 01:20:00,77.6,73.1,30.02,SW,236,0.0,0.0,86,0.00,CLR,,0.00,0.0,WeatherDisplay:10.37,2013-08-05 05:20:00,
2013-08-05 01:23:00,77.6,73.1,30.02,SW,236,0.0,0.0,86,0.00,CLR,,0.00,0.0,WeatherDisplay:10.37,2013-08-05 05:23:00,
2013-08-05 01:24:00,77.6,73.1,30.02,SW,236,0.0,0.0,86,0.00,CLR,,0.00,0.0,WeatherDisplay:10.37,2013-08-05 05:24:00,
2013-08-05 01:25:00,77.5,73.0,30.01,SW,236,0.0,0.1,86,0.00,CLR,,0.00,0.0,WeatherDisplay:10.37,2013-08-05 05:25:00,
2013-08-05 01:27:00,77.5,73.0,30.01,SW,236,0.0,0.0,86,0.00,CLR,,0.00,0.0,WeatherDisplay:10.37,2013-08-05 05:27:00,
2013-08-05 01:29:00,77.5,73.0,30.01,SW,236,0.0,0.0,86,0.00,CLR,,0.00,0.0,WeatherDisplay:10.37,2013-08-05 05:29:00,
2013-08-05 01:30:00,77.5,73.0,30.01,SW,236,0.0,0.0,86,0.00,CLR,,0.00,0.0,WeatherDisplay:10.37,2013-08-05 05:30:00,
2013-08-05 01:31:00,77.5,73.0,30.01,SW,236,0.0,0.0,86,0.00,CLR,,0.00,0.0,WeatherDisplay:10.37,2013-08-05 05:31:00,
2013-08-05 01:32:00,77.4,72.9,30.01,SW,236,0.0,0.0,86,0.00,CLR,,0.00,0.0,WeatherDisplay:10.37,2013-08-05 05:32:00,
2013-08-05 01:34:00,77.4,72.9,30.01,SW,236,0.0,0.0,86,0.00,CLR,,0.00,0.0,WeatherDisplay:10.37,2013-08-05 05:34:00,
2013-08-05 01:35:00,77.4,72.9,30.01,SW,236,0.0,0.0,86,0.00,CLR,,0.00,0.0,WeatherDisplay:10.37,2013-08-05 05:35:00,
2013-08-05 01:36:00,77.4,72.9,30.01,SW,236,0.0,0.0,86,0.00,CLR,,0.00,0.0,WeatherDisplay:10.37,2013-08-05 05:36:00,
2013-08-05 01:38:00,77.4,72.9,30.01,SW,236,0.0,0.0,86,0.00,CLR,,0.00,0.0,WeatherDisplay:10.37,2013-08-05 05:38:00,
2013-08-05 01:39:00,77.4,72.9,30.01,SW,236,0.0,0.0,86,0.00,CLR,,0.00,0.0,WeatherDisplay:10.37,2013-08-05 05:39:00,
2013-08-05 01:40:00,77.4,72.9,30.01,SW,236,0.0,0.0,86,0.00,CLR,,0.00,0.0,WeatherDisplay:10.37,2013-08-05 05:40:00,
2013-08-05 01:41:00,77.3,72.8,30.01,SW,236,0.0,0.0,86,0.00,CLR,,0.00,0.0,WeatherDisplay:10.37,2013-08-05 05:41:00,
2013-08-05 01:42:00,77.3,72.4,30.01,SW,236,0.0,0.0,85,0.00,CLR,,0.00,0.0,WeatherDisplay:10.37,2013-08-05 05:42:00,
2013-08-05 01:43:00,77.3,72.4,30.01,SW,236,0.0,0.0,85,0.00,CLR,,0.00,0.0,WeatherDisplay:10.37,2013-08-05 05:43:00,
2013-08-05 01:44:00,77.3,72.4,30.01,SW,236,0.0,0.0,85,0.00,CLR,,0.00,0.0,WeatherDisplay:10.37,2013-08-05 05:44:00,
2013-08-05 01:45:00,77.3,72.8,30.01,SW,236,0.0,0.0,86,0.00,CLR,,0.00,0.0,WeatherDisplay:10.37,2013-08-05 05:45:00,
2013-08-05 01:46:00,77.3,72.8,30.01,SW,236,0.0,0.0,86,0.00,CLR,,0.00,0.0,WeatherDisplay:10.37,2013-08-05 05:46:00,
2013-08-05 01:47:00,77.2,72.7,30.01,SW,236,0.0,0.0,86,0.00,CLR,,0.00,0.0,WeatherDisplay:10.37,2013-08-05 05:47:00,
2013-08-05 01:48:00,77.2,72.3,30.01,SW,236,1.2,0.0,85,0.00,CLR,,0.00,0.0,WeatherDisplay:10.37,2013-08-05 05:48:00,
2013-08-05 01:49:00,77.3,72.4,30.01,SW,236,0.0,0.0,85,0.00,CLR,,0.00,0.0,WeatherDisplay:10.37,2013-08-05 05:49:00,
2013-08-05 01:50:00,77.2,72.3,30.01,SW,236,0.0,0.0,85,0.00,CLR,,0.00,0.0,WeatherDisplay:10.37,2013-08-05 05:50:00,
2013-08-05 01:51:00,77.3,72.4,30.01,SW,236,1.2,1.2,85,0.00,CLR,,0.00,0.0,WeatherDisplay:10.37,2013-08-05 05:51:00,
2013-08-05 01:52:00,77.3,72.4,30.01,SW,236,0.0,0.0,85,0.00,CLR,,0.00,0.0,WeatherDisplay:10.37,2013-08-05 05:52:00,
2013-08-05 01:53:00,77.2,72.3,30.01,SW,236,0.0,0.0,85,0.00,CLR,,0.00,0.0,WeatherDisplay:10.37,2013-08-05 05:53:00,
2013-08-05 01:54:00,77.3,72.4,30.00,SW,236,0.0,0.0,85,0.00,CLR,,0.00,0.0,WeatherDisplay:10.37,2013-08-05 05:54:00,
2013-08-05 01:55:00,77.2,72.3,30.00,SW,236,0.0,0.0,85,0.00,CLR,,0.00,0.0,WeatherDisplay:10.37,2013-08-05 05:55:00,
2013-08-05 01:56:00,77.3,72.4,30.00,SW,236,0.0,0.0,85,0.00,CLR,,0.00,0.0,WeatherDisplay:10.37,2013-08-05 05:56:00,
2013-08-05 01:57:00,77.3,72.4,30.00,SW,236,1.2,0.0,85,0.00,CLR,,0.00,0.0,WeatherDisplay:10.37,2013-08-05 05:57:00,
2013-08-05 01:58:00,77.3,72.4,30.00,SW,236,0.0,0.0,85,0.00,CLR,,0.00,0.0,WeatherDisplay:10.37,2013-08-05 05:58:00,
2013-08-05 01:59:00,77.2,72.3,30.00,SW,236,0.0,0.0,85,0.00,CLR,,0.00,0.0,WeatherDisplay:10.37,2013-08-05 05:59:00,
2013-08-05 02:00:00,77.2,72.3,30.00,SW,236,0.0,0.0,85,0.00,CLR,,0.00,0.0,WeatherDisplay:10.37,2013-08-05 06:00:00,
2013-08-05 02:02:00,77.2,72.3,30.00,SW,236,0.0,0.0,85,0.00,CLR,,0.00,0.0,WeatherDisplay:10.37,2013-08-05 06:02:00,
2013-08-05 02:03:00,77.2,72.3,30.00,SW,236,0.0,0.0,85,0.00,CLR,,0.00,0.0,WeatherDisplay:10.37,2013-08-05 06:03:00,
2013-08-05 02:05:00,77.3,72.4,30.00,SW,236,1.2,1.2,85,0.00,CLR,,0.00,0.0,WeatherDisplay:10.37,2013-08-05 06:05:00,
2013-08-05 02:07:00,77.3,72.4,30.00,SW,236,0.0,0.0,85,0.00,CLR,,0.00,0.0,WeatherDisplay:10.37,2013-08-05 06:07:00,
2013-08-05 02:08:00,77.2,72.3,30.00,SW,236,0.0,0.0,85,0.00,CLR,,0.00,0.0,WeatherDisplay:10.37,2013-08-05 06:08:00,
2013-08-05 02:10:00,77.2,72.3,30.00,SW,236,0.0,0.0,85,0.00,CLR,,0.00,0.0,WeatherDisplay:10.37,2013-08-05 06:10:00,
2013-08-05 02:11:00,77.2,72.3,30.00,SW,236,0.0,0.0,85,0.00,CLR,,0.00,0.0,WeatherDisplay:10.37,2013-08-05 06:11:00,
2013-08-05 02:12:00,77.2,72.3,30.00,SW,236,0.0,0.0,85,0.00,CLR,,0.00,0.0,WeatherDisplay:10.37,2013-08-05 06:12:00,
2013-08-05 02:13:00,77.2,72.3,30.00,SW,236,0.0,0.0,85,0.00,CLR,,0.00,0.0,WeatherDisplay:10.37,2013-08-05 06:13:00,
2013-08-05 02:15:00,77.1,72.2,30.00,SW,236,0.0,0.0,85,0.00,CLR,,0.00,0.0,WeatherDisplay:10.37,2013-08-05 06:15:00,
2013-08-05 02:17:00,77.1,72.2,30.00,SW,236,0.0,0.0,85,0.00,CLR,,0.00,0.0,WeatherDisplay:10.37,2013-08-05 06:17:00,
2013-08-05 02:18:00,77.1,72.2,30.00,SW,236,0.0,0.0,85,0.00,CLR,,0.00,0.0,WeatherDisplay:10.37,2013-08-05 06:18:00,
2013-08-05 02:20:00,77.1,72.2,30.00,SW,236,0.0,0.0,85,0.00,CLR,,0.00,0.0,WeatherDisplay:10.37,2013-08-05 06:20:00,
2013-08-05 02:22:00,77.1,72.2,30.00,SW,236,0.0,0.0,85,0.00,CLR,,0.00,0.0,WeatherDisplay:10.37,2013-08-05 06:22:00,
2013-08-05 02:23:00,77.0,72.1,30.00,SW,236,0.0,0.0,85,0.00,CLR,,0.00,0.0,WeatherDisplay:10.37,2013-08-05 06:23:00,
2013-08-05 02:24:00,77.0,72.1,30.00,SW,236,0.0,0.0,85,0.00,CLR,,0.00,0.0,WeatherDisplay:10.37,2013-08-05 06:24:00,
2013-08-05 02:26:00,77.0,72.1,30.00,SW,236,0.0,0.0,85,0.00,CLR,,0.00,0.0,WeatherDisplay:10.37,2013-08-05 06:26:00,
2013-08-05 02:27:00,77.0,72.1,30.00,SW,236,0.0,0.0,85,0.00,CLR,,0.00,0.0,WeatherDisplay:10.37,2013-08-05 06:27:00,
2013-08-05 02:29:00,76.9,72.0,30.00,SW,236,0.0,0.0,85,0.00,CLR,,0.00,0.0,WeatherDisplay:10.37,2013-08-05 06:29:00,
2013-08-05 02:31:00,76.9,72.0,30.00,SW,236,0.0,0.0,85,0.00,CLR,,0.00,0.0,WeatherDisplay:10.37,2013-08-05 06:31:00,
2013-08-05 02:32:00,76.8,71.9,30.00,SW,236,0.0,0.0,85,0.00,CLR,,0.00,0.0,WeatherDisplay:10.37,2013-08-05 06:32:00,
2013-08-05 02:34:00,76.8,71.9,30.00,SW,236,0.0,0.0,85,0.00,CLR,,0.00,0.0,WeatherDisplay:10.37,2013-08-05 06:34:00,
2013-08-05 02:36:00,76.8,71.9,29.99,SW,236,0.0,0.0,85,0.00,CLR,,0.00,0.0,WeatherDisplay:10.37,2013-08-05 06:36:00,
2013-08-05 02:37:00,76.8,71.9,29.99,SW,236,0.0,0.0,85,0.00,CLR,,0.00,0.0,WeatherDisplay:10.37,2013-08-05 06:37:00,
2013-08-05 02:39:00,76.8,71.9,29.99,SW,236,0.0,0.0,85,0.00,CLR,,0.00,0.0,WeatherDisplay:10.37,2013-08-05 06:39:00,
2013-08-05 02:42:00,76.7,71.8,29.99,SW,236,0.0,0.0,85,0.00,CLR,,0.00,0.0,WeatherDisplay:10.37,2013-08-05 06:42:00,
2013-08-05 02:43:00,76.8,71.9,29.99,SW,236,0.0,0.0,85,0.00,CLR,,0.00,0.0,WeatherDisplay:10.37,2013-08-05 06:43:00,
2013-08-05 02:44:00,76.7,71.8,29.99,SW,236,0.0,0.0,85,0.00,CLR,,0.00,0.0,WeatherDisplay:10.37,2013-08-05 06:44:00,
2013-08-05 02:47:00,76.6,71.7,29.99,SW,236,0.0,0.0,85,0.00,CLR,,0.00,0.0,WeatherDisplay:10.37,2013-08-05 06:47:00,
2013-08-05 02:48:00,76.6,71.7,29.99,SW,236,0.0,0.0,85,0.00,CLR,,0.00,0.0,WeatherDisplay:10.37,2013-08-05 06:48:00,
2013-08-05 02:49:00,76.6,71.7,29.99,SW,236,0.0,0.0,85,0.00,CLR,,0.00,0.0,WeatherDisplay:10.37,2013-08-05 06:49:00,
2013-08-05 02:50:00,76.5,71.7,29.99,SW,236,0.0,0.0,85,0.00,CLR,,0.00,0.0,WeatherDisplay:10.37,2013-08-05 06:50:00,
2013-08-05 02:52:00,76.5,71.7,29.99,SW,236,0.0,0.0,85,0.00,CLR,,0.00,0.0,WeatherDisplay:10.37,2013-08-05 06:52:00,
2013-08-05 02:53:00,76.5,71.7,29.99,SW,236,0.0,0.0,85,0.00,CLR,,0.00,0.0,WeatherDisplay:10.37,2013-08-05 06:53:00,
2013-08-05 02:54:00,76.5,71.7,29.99,SW,236,0.0,0.0,85,0.00,CLR,,0.00,0.0,WeatherDisplay:10.37,2013-08-05 06:54:00,
2013-08-05 02:55:00,76.5,71.7,29.99,SW,236,0.0,0.0,85,0.00,CLR,,0.00,0.0,WeatherDisplay:10.37,2013-08-05 06:55:00,
2013-08-05 02:58:00,76.5,71.7,29.99,SW,236,0.0,0.0,85,0.00,CLR,,0.00,0.0,WeatherDisplay:10.37,2013-08-05 06:58:00,
2013-08-05 02:59:00,76.5,71.7,29.99,SW,236,0.0,0.0,85,0.00,CLR,,0.00,0.0,WeatherDisplay:10.37,2013-08-05 06:59:00,
2013-08-05 03:00:00,76.4,71.6,29.99,SW,236,0.0,0.0,85,0.00,CLR,,0.00,0.0,WeatherDisplay:10.37,2013-08-05 07:00:00,
2013-08-05 03:03:00,76.4,71.6,29.98,SW,236,0.0,0.0,85,0.00,CLR,,0.00,0.0,WeatherDisplay:10.37,2013-08-05 07:03:00,
2013-08-05 03:04:00,76.3,71.5,29.99,SW,236,0.0,0.0,85,0.00,CLR,,0.00,0.0,WeatherDisplay:10.37,2013-08-05 07:04:00,
2013-08-05 03:05:00,76.3,71.5,29.98,SW,236,0.0,0.0,85,0.00,CLR,,0.00,0.0,WeatherDisplay:10.37,2013-08-05 07:05:00,
2013-08-05 03:08:00,76.2,71.4,29.98,SW,236,0.0,0.0,85,0.00,CLR,,0.00,0.0,WeatherDisplay:10.37,2013-08-05 07:08:00,
2013-08-05 03:09:00,76.2,71.4,29.98,SW,236,0.0,0.0,85,0.00,CLR,,0.00,0.0,WeatherDisplay:10.37,2013-08-05 07:09:00,
2013-08-05 03:10:00,76.2,71.4,29.98,SW,236,0.0,0.0,85,0.00,CLR,,0.00,0.0,WeatherDisplay:10.37,2013-08-05 07:10:00,
2013-08-05 03:11:00,76.2,71.4,29.98,SW,236,0.0,0.0,85,0.00,CLR,,0.00,0.0,WeatherDisplay:10.37,2013-08-05 07:11:00,
2013-08-05 03:13:00,76.2,71.4,29.98,SW,236,0.0,0.0,85,0.00,CLR,,0.00,0.0,WeatherDisplay:10.37,2013-08-05 07:13:00,
2013-08-05 03:14:00,76.2,71.4,29.98,SW,236,0.0,0.0,85,0.00,CLR,,0.00,0.0,WeatherDisplay:10.37,2013-08-05 07:14:00,
2013-08-05 03:15:00,76.2,71.4,29.98,SW,236,0.0,0.0,85,0.00,CLR,,0.00,0.0,WeatherDisplay:10.37,2013-08-05 07:15:00,
2013-08-05 03:17:00,76.2,71.4,29.98,SW,236,0.0,0.0,85,0.00,CLR,,0.00,0.0,WeatherDisplay:10.37,2013-08-05 07:17:00,
2013-08-05 03:19:00,76.2,71.4,29.98,SW,236,0.0,0.0,85,0.00,CLR,,0.00,0.0,WeatherDisplay:10.37,2013-08-05 07:19:00,
2013-08-05 03:20:00,76.2,71.4,29.98,SW,236,0.0,0.0,85,0.00,CLR,,0.00,0.0,WeatherDisplay:10.37,2013-08-05 07:20:00,
2013-08-05 03:22:00,76.2,71.4,29.98,SW,236,0.0,0.0,85,0.00,CLR,,0.00,0.0,WeatherDisplay:10.37,2013-08-05 07:22:00,
2013-08-05 03:24:00,76.3,71.5,29.98,SW,236,0.0,0.0,85,0.00,CLR,,0.00,0.0,WeatherDisplay:10.37,2013-08-05 07:24:00,
2013-08-05 03:25:00,76.3,71.5,29.97,SW,236,0.0,0.0,85,0.00,CLR,,0.00,0.0,WeatherDisplay:10.37,2013-08-05 07:25:00,
2013-08-05 03:27:00,76.3,71.5,29.97,SW,236,0.0,0.0,85,0.00,CLR,,0.00,0.0,WeatherDisplay:10.37,2013-08-05 07:27:00,
2013-08-05 03:29:00,76.3,71.5,29.98,SW,236,0.0,0.0,85,0.00,CLR,,0.00,0.0,WeatherDisplay:10.37,2013-08-05 07:29:00,
2013-08-05 03:30:00,76.3,71.5,29.98,SW,236,0.0,0.0,85,0.00,CLR,,0.00,0.0,WeatherDisplay:10.37,2013-08-05 07:30:00,
2013-08-05 03:31:00,76.3,71.5,29.98,SW,236,0.0,0.0,85,0.00,CLR,,0.00,0.0,WeatherDisplay:10.37,2013-08-05 07:31:00,
2013-08-05 03:32:00,76.3,71.5,29.98,SW,236,0.0,0.0,85,0.00,CLR,,0.00,0.0,WeatherDisplay:10.37,2013-08-05 07:32:00,
2013-08-05 03:34:00,76.3,71.5,29.98,SW,236,0.0,0.0,85,0.00,CLR,,0.00,0.0,WeatherDisplay:10.37,2013-08-05 07:34:00,
2013-08-05 03:35:00,76.3,71.5,29.98,SW,236,0.0,0.0,85,0.00,CLR,,0.00,0.0,WeatherDisplay:10.37,2013-08-05 07:35:00,
2013-08-05 03:36:00,76.3,71.5,29.98,SW,236,0.0,0.0,85,0.00,CLR,,0.00,0.0,WeatherDisplay:10.37,2013-08-05 07:36:00,
2013-08-05 03:37:00,76.3,71.5,29.98,SW,236,0.0,0.0,85,0.00,CLR,,0.00,0.0,WeatherDisplay:10.37,2013-08-05 07:37:00,
2013-08-05 03:39:00,76.3,71.5,29.97,SW,236,0.0,0.0,85,0.00,CLR,,0.00,0.0,WeatherDisplay:10.37,2013-08-05 07:39:00,
2013-08-05 03:40:00,76.3,71.5,29.98,SW,236,0.0,0.0,85,0.00,CLR,,0.00,0.0,WeatherDisplay:10.37,2013-08-05 07:40:00,
2013-08-05 03:41:00,76.2,71.4,29.98,SW,236,0.0,0.0,85,0.00,CLR,,0.00,0.0,WeatherDisplay:10.37,2013-08-05 07:41:00,
2013-08-05 03:42:00,76.2,71.4,29.97,SW,236,0.0,0.0,85,0.00,CLR,,0.00,0.0,WeatherDisplay:10.37,2013-08-05 07:42:00,
2013-08-05 03:44:00,76.2,71.4,29.97,SW,236,0.0,0.0,85,0.00,CLR,,0.00,0.0,WeatherDisplay:10.37,2013-08-05 07:44:00,
2013-08-05 03:45:00,76.2,71.4,29.97,SW,236,0.0,0.0,85,0.00,CLR,,0.00,0.0,WeatherDisplay:10.37,2013-08-05 07:45:00,
2013-08-05 03:46:00,76.1,71.3,29.97,SW,236,0.0,0.0,85,0.00,CLR,,0.00,0.0,WeatherDisplay:10.37,2013-08-05 07:46:00,
2013-08-05 03:47:00,76.1,71.3,29.97,SW,236,0.0,0.0,85,0.00,CLR,,0.00,0.0,WeatherDisplay:10.37,2013-08-05 07:47:00,
2013-08-05 03:50:00,76.0,71.2,29.97,SW,236,0.0,0.0,85,0.00,CLR,,0.00,0.0,WeatherDisplay:10.37,2013-08-05 07:50:00,
2013-08-05 03:51:00,76.0,71.2,29.97,SW,236,0.0,0.0,85,0.00,CLR,,0.00,0.0,WeatherDisplay:10.37,2013-08-05 07:51:00,
2013-08-05 03:52:00,76.0,71.2,29.97,SW,236,0.0,0.0,85,0.00,CLR,,0.00,0.0,WeatherDisplay:10.37,2013-08-05 07:52:00,
2013-08-05 03:55:00,75.9,71.1,29.97,SW,236,0.0,0.0,85,0.00,CLR,,0.00,0.0,WeatherDisplay:10.37,2013-08-05 07:55:00,
2013-08-05 03:57:00,76.0,71.2,29.97,SW,236,0.0,0.0,85,0.00,CLR,,0.00,0.0,WeatherDisplay:10.37,2013-08-05 07:57:00,
2013-08-05 04:00:00,76.0,71.2,29.97,SW,236,0.0,0.0,85,0.00,CLR,,0.00,0.0,WeatherDisplay:10.37,2013-08-05 08:00:00,
2013-08-05 04:02:00,75.9,71.1,29.98,SW,236,0.0,0.0,85,0.00,CLR,,0.00,0.0,WeatherDisplay:10.37,2013-08-05 08:02:00,
2013-08-05 04:03:00,75.9,71.1,29.97,SW,236,0.0,0.0,85,0.00,CLR,,0.00,0.0,WeatherDisplay:10.37,2013-08-05 08:03:00,
2013-08-05 04:05:00,75.9,71.1,29.98,SW,236,0.0,0.0,85,0.00,CLR,,0.00,0.0,WeatherDisplay:10.37,2013-08-05 08:05:00,
2013-08-05 04:06:00,75.9,71.1,29.98,SW,236,0.0,0.0,85,0.00,CLR,,0.00,0.0,WeatherDisplay:10.37,2013-08-05 08:06:00,
2013-08-05 04:07:00,75.9,71.1,29.98,SW,236,0.0,0.0,85,0.00,CLR,,0.00,0.0,WeatherDisplay:10.37,2013-08-05 08:07:00,
2013-08-05 04:08:00,76.0,71.2,29.98,SW,236,0.0,0.0,85,0.00,CLR,,0.00,0.0,WeatherDisplay:10.37,2013-08-05 08:08:00,
2013-08-05 04:11:00,76.0,71.2,29.98,SW,236,0.0,0.0,85,0.00,CLR,,0.00,0.0,WeatherDisplay:10.37,2013-08-05 08:11:00,
2013-08-05 04:12:00,75.9,71.1,29.98,SW,236,0.0,0.0,85,0.00,CLR,,0.00,0.0,WeatherDisplay:10.37,2013-08-05 08:12:00,
2013-08-05 04:13:00,75.9,71.1,29.98,SW,236,0.0,0.0,85,0.00,CLR,,0.00,0.0,WeatherDisplay:10.37,2013-08-05 08:13:00,
2013-08-05 04:16:00,75.8,71.0,29.98,SW,236,0.0,0.0,85,0.00,CLR,,0.00,0.0,WeatherDisplay:10.37,2013-08-05 08:16:00,
2013-08-05 04:17:00,75.8,71.0,29.98,SW,236,0.0,0.0,85,0.00,CLR,,0.00,0.0,WeatherDisplay:10.37,2013-08-05 08:17:00,
2013-08-05 04:18:00,75.8,71.0,29.98,SW,236,0.0,0.0,85,0.00,CLR,,0.00,0.0,WeatherDisplay:10.37,2013-08-05 08:18:00,
2013-08-05 04:21:00,75.7,70.9,29.98,SW,236,0.0,0.0,85,0.00,CLR,,0.00,0.0,WeatherDisplay:10.37,2013-08-05 08:21:00,
2013-08-05 04:22:00,75.7,70.9,29.98,SW,236,0.0,0.0,85,0.00,CLR,,0.00,0.0,WeatherDisplay:10.37,2013-08-05 08:22:00,
2013-08-05 04:23:00,75.7,70.9,29.98,SW,236,0.0,0.0,85,0.00,CLR,,0.00,0.0,WeatherDisplay:10.37,2013-08-05 08:23:00,
2013-08-05 04:26:00,75.6,70.8,29.98,SW,236,0.0,0.0,85,0.00,CLR,,0.00,0.0,WeatherDisplay:10.37,2013-08-05 08:26:00,
2013-08-05 04:27:00,75.7,70.9,29.98,SW,236,0.0,0.0,85,0.00,CLR,,0.00,0.0,WeatherDisplay:10.37,2013-08-05 08:27:00,
2013-08-05 04:28:00,75.7,70.9,29.98,SW,236,0.0,0.0,85,0.00,CLR,,0.00,0.0,WeatherDisplay:10.37,2013-08-05 08:28:00,
2013-08-05 04:32:00,75.8,71.0,29.98,SW,236,0.0,0.0,85,0.00,CLR,,0.00,0.0,WeatherDisplay:10.37,2013-08-05 08:32:00,
2013-08-05 04:33:00,75.8,71.0,29.98,SW,236,0.0,0.0,85,0.00,CLR,,0.00,0.0,WeatherDisplay:10.37,2013-08-05 08:33:00,
2013-08-05 04:37:00,75.7,70.9,29.98,SW,236,0.0,0.0,85,0.00,CLR,,0.00,0.0,WeatherDisplay:10.37,2013-08-05 08:37:00,
2013-08-05 04:38:00,75.7,70.9,29.98,SW,236,0.0,0.0,85,0.00,CLR,,0.00,0.0,WeatherDisplay:10.37,2013-08-05 08:38:00,
2013-08-05 04:39:00,75.7,70.9,29.98,SW,236,0.0,0.0,85,0.00,CLR,,0.00,0.0,WeatherDisplay:10.37,2013-08-05 08:39:00,
2013-08-05 04:43:00,75.7,70.9,29.98,SW,236,0.0,0.0,85,0.00,CLR,,0.00,0.0,WeatherDisplay:10.37,2013-08-05 08:43:00,
2013-08-05 04:46:00,75.6,70.8,29.98,SW,236,0.0,0.0,85,0.00,CLR,,0.00,0.0,WeatherDisplay:10.37,2013-08-05 08:46:00,
2013-08-05 04:48:00,75.6,70.8,29.98,SW,236,0.0,0.0,85,0.00,CLR,,0.00,0.0,WeatherDisplay:10.37,2013-08-05 08:48:00,
2013-08-05 04:52:00,75.6,70.8,29.98,SW,236,0.0,0.0,85,0.00,CLR,,0.00,0.0,WeatherDisplay:10.37,2013-08-05 08:52:00,
2013-08-05 04:53:00,75.5,70.7,29.98,SW,236,0.0,0.0,85,0.00,CLR,,0.00,0.0,WeatherDisplay:10.37,2013-08-05 08:53:00,
2013-08-05 04:57:00,75.5,70.7,29.98,SW,236,0.0,0.0,85,0.00,CLR,,0.00,0.0,WeatherDisplay:10.37,2013-08-05 08:57:00,
2013-08-05 04:58:00,75.4,70.6,29.98,SW,236,0.0,0.0,85,0.00,CLR,,0.00,0.0,WeatherDisplay:10.37,2013-08-05 08:58:00,
2013-08-05 04:59:00,75.4,70.6,29.98,SW,236,0.0,0.0,85,0.00,CLR,,0.00,0.0,WeatherDisplay:10.37,2013-08-05 08:59:00,
2013-08-05 05:03:00,75.3,70.5,29.98,SW,236,0.0,0.0,85,0.00,CLR,,0.00,0.0,WeatherDisplay:10.37,2013-08-05 09:03:00,
2013-08-05 05:04:00,75.3,70.5,29.98,SW,236,0.0,0.0,85,0.00,CLR,,0.00,0.0,WeatherDisplay:10.37,2013-08-05 09:04:00,
2013-08-05 05:05:00,75.3,70.5,29.98,SW,236,0.0,0.0,85,0.00,CLR,,0.00,0.0,WeatherDisplay:10.37,2013-08-05 09:05:00,
2013-08-05 05:09:00,75.3,70.5,29.98,SW,236,0.0,0.0,85,0.00,CLR,,0.00,0.0,WeatherDisplay:10.37,2013-08-05 09:09:00,
2013-08-05 05:10:00,75.2,70.4,29.98,SW,236,0.0,0.0,85,0.00,CLR,,0.00,0.0,WeatherDisplay:10.37,2013-08-05 09:10:00,
2013-08-05 05:14:00,75.2,70.4,29.98,SW,236,0.0,0.0,85,0.00,CLR,,0.00,0.0,WeatherDisplay:10.37,2013-08-05 09:14:00,
2013-08-05 05:15:00,75.2,70.4,29.98,SW,236,0.0,0.0,85,0.00,CLR,,0.00,0.0,WeatherDisplay:10.37,2013-08-05 09:15:00,
2013-08-05 05:16:00,75.2,70.4,29.98,SW,236,0.0,0.0,85,0.00,CLR,,0.00,0.0,WeatherDisplay:10.37,2013-08-05 09:16:00,
2013-08-05 05:19:00,75.2,70.4,29.98,SW,236,0.0,0.0,85,0.00,CLR,,0.00,0.0,WeatherDisplay:10.37,2013-08-05 09:19:00,
2013-08-05 05:20:00,75.2,70.4,29.98,SW,236,0.0,0.0,85,0.00,CLR,,0.00,0.0,WeatherDisplay:10.37,2013-08-05 09:20:00,
2013-08-05 05:23:00,75.1,70.3,29.98,SW,236,0.0,0.0,85,0.00,CLR,,0.00,0.0,WeatherDisplay:10.37,2013-08-05 09:23:00,
2013-08-05 05:25:00,75.1,70.3,29.98,SW,236,0.0,0.0,85,0.00,CLR,,0.00,0.0,WeatherDisplay:10.37,2013-08-05 09:25:00,
2013-08-05 05:26:00,75.1,70.3,29.98,SW,236,0.0,0.0,85,0.00,CLR,,0.00,0.0,WeatherDisplay:10.37,2013-08-05 09:26:00,
2013-08-05 05:28:00,74.9,70.1,29.98,SW,236,0.0,0.0,85,0.00,CLR,,0.00,0.0,WeatherDisplay:10.37,2013-08-05 09:28:00,
2013-08-05 05:31:00,74.9,70.1,29.98,SW,236,0.0,0.0,85,0.00,CLR,,0.00,0.0,WeatherDisplay:10.37,2013-08-05 09:31:00,
2013-08-05 05:33:00,74.9,70.1,29.98,SW,236,0.0,0.0,85,0.00,CLR,,0.00,0.0,WeatherDisplay:10.37,2013-08-05 09:33:00,
2013-08-05 05:35:00,74.9,70.1,29.98,SW,236,0.0,0.0,85,0.00,CLR,,0.00,0.0,WeatherDisplay:10.37,2013-08-05 09:35:00,
2013-08-05 05:37:00,74.9,70.1,29.98,SW,236,0.0,0.0,85,0.00,CLR,,0.00,0.0,WeatherDisplay:10.37,2013-08-05 09:37:00,
2013-08-05 05:38:00,74.9,70.1,29.98,SW,236,0.0,0.0,85,0.00,CLR,,0.00,0.0,WeatherDisplay:10.37,2013-08-05 09:38:00,
2013-08-05 05:40:00,74.8,70.0,29.98,SW,236,0.0,0.0,85,0.00,CLR,,0.00,0.0,WeatherDisplay:10.37,2013-08-05 09:40:00,
2013-08-05 05:42:00,74.8,70.0,29.98,SW,236,0.0,0.0,85,0.00,CLR,,0.00,0.0,WeatherDisplay:10.37,2013-08-05 09:42:00,
2013-08-05 05:46:00,74.9,70.1,29.98,SW,236,0.0,0.0,85,0.00,CLR,,0.00,0.0,WeatherDisplay:10.37,2013-08-05 09:46:00,
2013-08-05 05:47:00,74.9,70.1,29.98,SW,236,0.0,0.0,85,0.00,CLR,,0.00,0.0,WeatherDisplay:10.37,2013-08-05 09:47:00,
2013-08-05 05:48:00,74.9,70.1,29.98,SW,236,0.0,0.0,85,0.00,CLR,,0.00,0.0,WeatherDisplay:10.37,2013-08-05 09:48:00,
2013-08-05 05:49:00,74.9,70.1,29.98,SW,236,0.0,0.0,85,0.00,CLR,,0.00,0.0,WeatherDisplay:10.37,2013-08-05 09:49:00,
2013-08-05 05:52:00,74.9,70.4,29.98,SW,236,0.0,0.0,86,0.00,CLR,,0.00,0.0,WeatherDisplay:10.37,2013-08-05 09:52:00,
2013-08-05 05:53:00,74.9,70.4,29.98,SW,236,0.0,0.0,86,0.00,CLR,,0.00,0.0,WeatherDisplay:10.37,2013-08-05 09:53:00,
2013-08-05 05:56:00,75.0,70.5,29.98,SW,236,0.0,0.0,86,0.00,CLR,,0.00,0.0,WeatherDisplay:10.37,2013-08-05 09:56:00,
2013-08-05 05:57:00,75.0,70.5,29.98,SW,236,0.0,0.0,86,0.00,CLR,,0.00,0.0,WeatherDisplay:10.37,2013-08-05 09:57:00,
2013-08-05 05:59:00,75.1,70.3,29.98,SW,236,0.0,0.0,85,0.00,CLR,,0.00,0.0,WeatherDisplay:10.37,2013-08-05 09:59:00,
2013-08-05 06:01:00,75.2,70.4,29.98,SW,236,0.0,0.0,85,0.00,CLR,,0.00,0.0,WeatherDisplay:10.37,2013-08-05 10:01:00,
2013-08-05 06:04:00,75.4,70.6,29.98,SW,236,0.0,0.0,85,0.00,CLR,,0.00,0.0,WeatherDisplay:10.37,2013-08-05 10:04:00,
2013-08-05 06:06:00,75.4,70.6,29.98,SW,236,0.0,0.0,85,0.00,CLR,,0.00,0.0,WeatherDisplay:10.37,2013-08-05 10:06:00,
2013-08-05 06:07:00,75.4,70.6,29.98,SW,236,0.0,0.0,85,0.00,CLR,,0.00,0.0,WeatherDisplay:10.37,2013-08-05 10:07:00,
2013-08-05 06:09:00,75.4,70.6,29.98,SW,236,1.2,0.0,85,0.00,CLR,,0.00,0.0,WeatherDisplay:10.37,2013-08-05 10:09:00,
2013-08-05 06:11:00,75.4,70.6,29.98,SW,236,0.0,0.0,85,0.00,CLR,,0.00,0.0,WeatherDisplay:10.37,2013-08-05 10:11:00,
2013-08-05 06:12:00,75.4,70.6,29.98,SW,236,0.0,0.0,85,0.00,CLR,,0.00,0.0,WeatherDisplay:10.37,2013-08-05 10:12:00,
2013-08-05 06:15:00,75.4,70.9,29.98,SW,236,0.0,0.0,86,0.00,CLR,,0.00,0.0,WeatherDisplay:10.37,2013-08-05 10:15:00,
2013-08-05 06:16:00,75.4,70.6,29.98,SW,236,0.0,0.0,85,0.00,CLR,,0.00,0.0,WeatherDisplay:10.37,2013-08-05 10:16:00,
2013-08-05 06:17:00,75.5,71.0,29.99,SW,236,0.0,0.0,86,0.00,CLR,,0.00,0.0,WeatherDisplay:10.37,2013-08-05 10:17:00,
2013-08-05 06:20:00,75.5,71.0,29.99,SW,236,0.0,0.0,86,0.00,CLR,,0.00,0.0,WeatherDisplay:10.37,2013-08-05 10:20:00,
2013-08-05 06:22:00,75.5,71.0,29.99,SW,236,0.0,0.0,86,0.00,CLR,,0.00,0.0,WeatherDisplay:10.37,2013-08-05 10:22:00,
2013-08-05 06:23:00,75.4,70.9,29.99,SW,236,0.0,0.0,86,0.00,CLR,,0.00,0.0,WeatherDisplay:10.37,2013-08-05 10:23:00,
2013-08-05 06:26:00,75.4,70.9,29.99,SW,236,0.0,0.0,86,0.00,CLR,,0.00,0.0,WeatherDisplay:10.37,2013-08-05 10:26:00,
2013-08-05 06:28:00,75.4,70.9,29.99,SW,236,0.0,0.0,86,0.00,CLR,,0.00,0.0,WeatherDisplay:10.37,2013-08-05 10:28:00,
2013-08-05 06:29:00,75.5,71.0,29.99,SW,236,0.0,0.0,86,0.00,CLR,,0.00,0.0,WeatherDisplay:10.37,2013-08-05 10:29:00,
2013-08-05 06:32:00,75.4,70.9,29.99,SW,236,0.0,0.0,86,0.00,CLR,,0.00,0.0,WeatherDisplay:10.37,2013-08-05 10:32:00,
2013-08-05 06:34:00,75.4,70.9,29.99,SW,236,0.0,0.0,86,0.00,CLR,,0.00,0.0,WeatherDisplay:10.37,2013-08-05 10:34:00,
2013-08-05 06:37:00,75.4,70.9,29.99,SW,236,0.0,0.0,86,0.00,CLR,,0.00,0.0,WeatherDisplay:10.37,2013-08-05 10:37:00,
2013-08-05 06:39:00,75.4,70.9,29.99,SW,236,0.0,0.0,86,0.00,CLR,,0.00,0.0,WeatherDisplay:10.37,2013-08-05 10:39:00,
2013-08-05 06:40:00,75.3,70.8,29.99,SW,236,0.0,0.0,86,0.00,CLR,,0.00,0.0,WeatherDisplay:10.37,2013-08-05 10:40:00,
2013-08-05 06:42:00,75.4,70.9,30.00,SW,236,0.0,0.0,86,0.00,CLR,,0.00,0.0,WeatherDisplay:10.37,2013-08-05 10:42:00,
2013-08-05 06:45:00,75.3,70.8,30.00,SW,236,0.0,0.0,86,0.00,CLR,,0.00,0.0,WeatherDisplay:10.37,2013-08-05 10:45:00,
2013-08-05 06:46:00,75.4,70.9,30.00,SW,236,0.0,0.0,86,0.00,CLR,,0.00,0.0,WeatherDisplay:10.37,2013-08-05 10:46:00,
2013-08-05 06:47:00,75.3,70.8,30.00,SW,236,0.0,0.0,86,0.00,CLR,,0.00,0.0,WeatherDisplay:10.37,2013-08-05 10:47:00,
2013-08-05 06:50:00,75.3,70.8,30.00,SW,236,0.0,0.0,86,0.00,CLR,,0.00,0.0,WeatherDisplay:10.37,2013-08-05 10:50:00,
2013-08-05 06:51:00,75.3,70.8,30.00,SW,236,0.0,0.0,86,0.00,CLR,,0.00,0.0,WeatherDisplay:10.37,2013-08-05 10:51:00,
2013-08-05 06:52:00,75.3,70.8,30.00,SW,236,0.0,0.0,86,0.00,CLR,,0.00,5.0,WeatherDisplay:10.37,2013-08-05 10:52:00,
2013-08-05 06:53:00,75.3,70.8,30.00,SW,236,0.0,0.0,86,0.00,CLR,,0.00,5.0,WeatherDisplay:10.37,2013-08-05 10:53:00,
2013-08-05 06:55:00,75.3,70.8,30.00,SW,236,0.0,0.0,86,0.00,CLR,,0.00,5.0,WeatherDisplay:10.37,2013-08-05 10:55:00,
2013-08-05 06:56:00,75.3,70.8,30.00,SW,236,0.0,0.0,86,0.00,CLR,,0.00,7.0,WeatherDisplay:10.37,2013-08-05 10:56:00,
2013-08-05 06:58:00,75.3,70.8,30.00,SW,236,0.0,0.0,86,0.00,CLR,,0.00,7.0,WeatherDisplay:10.37,2013-08-05 10:58:00,
2013-08-05 07:01:00,75.3,70.8,30.00,SW,236,0.0,0.0,86,0.00,CLR,,0.00,9.0,WeatherDisplay:10.37,2013-08-05 11:01:00,
2013-08-05 07:02:00,75.3,70.8,30.00,SW,236,0.0,0.0,86,0.00,CLR,,0.00,9.0,WeatherDisplay:10.37,2013-08-05 11:02:00,
2013-08-05 07:04:00,75.3,70.8,30.00,SW,236,0.0,0.0,86,0.00,CLR,,0.00,11.0,WeatherDisplay:10.37,2013-08-05 11:04:00,
2013-08-05 07:07:00,75.2,70.7,30.00,SW,236,0.0,0.0,86,0.00,CLR,,0.00,14.0,WeatherDisplay:10.37,2013-08-05 11:07:00,
2013-08-05 07:09:00,75.2,70.7,30.00,SW,236,0.0,0.0,86,0.00,CLR,,0.00,19.0,WeatherDisplay:10.37,2013-08-05 11:09:00,
2013-08-05 07:10:00,75.2,70.7,30.00,SW,236,0.0,0.0,86,0.00,CLR,,0.00,19.0,WeatherDisplay:10.37,2013-08-05 11:10:00,
2013-08-05 07:12:00,75.1,70.6,30.00,SW,236,0.0,0.0,86,0.00,CLR,,0.00,21.0,WeatherDisplay:10.37,2013-08-05 11:12:00,
2013-08-05 07:13:00,75.1,70.6,30.00,SW,236,0.0,0.0,86,0.00,CLR,,0.00,23.0,WeatherDisplay:10.37,2013-08-05 11:13:00,
2013-08-05 07:14:00,75.2,70.7,30.00,SW,236,0.0,0.0,86,0.00,CLR,,0.00,23.0,WeatherDisplay:10.37,2013-08-05 11:14:00,
2013-08-05 07:15:00,75.2,70.7,30.00,SW,236,0.0,0.0,86,0.00,CLR,,0.00,23.0,WeatherDisplay:10.37,2013-08-05 11:15:00,
2013-08-05 07:18:00,75.2,70.7,30.01,SW,236,0.0,0.0,86,0.00,CLR,,0.00,26.0,WeatherDisplay:10.37,2013-08-05 11:18:00,
2013-08-05 07:20:00,75.3,70.8,30.00,SW,236,0.0,0.0,86,0.00,CLR,,0.00,26.0,WeatherDisplay:10.37,2013-08-05 11:20:00,
2013-08-05 07:24:00,75.4,70.9,30.00,SW,236,0.0,0.0,86,0.00,CLR,,0.00,28.0,WeatherDisplay:10.37,2013-08-05 11:24:00,
2013-08-05 07:25:00,75.5,71.0,30.00,SW,236,0.0,0.0,86,0.00,CLR,,0.00,30.0,WeatherDisplay:10.37,2013-08-05 11:25:00,
2013-08-05 07:29:00,75.6,71.1,30.00,SW,236,0.0,0.0,86,0.00,CLR,,0.00,37.0,WeatherDisplay:10.37,2013-08-05 11:29:00,
2013-08-05 07:30:00,75.6,71.1,30.00,SW,236,0.0,0.0,86,0.00,CLR,,0.00,40.0,WeatherDisplay:10.37,2013-08-05 11:30:00,
2013-08-05 07:31:00,75.7,71.2,30.00,SW,236,0.0,0.0,86,0.00,CLR,,0.00,40.0,WeatherDisplay:10.37,2013-08-05 11:31:00,
2013-08-05 07:34:00,75.9,71.4,30.01,SW,236,1.2,0.0,86,0.00,CLR,,0.00,65.0,WeatherDisplay:10.37,2013-08-05 11:34:00,
2013-08-05 07:35:00,76.0,71.5,30.01,SW,236,1.2,0.0,86,0.00,CLR,,0.00,69.0,WeatherDisplay:10.37,2013-08-05 11:35:00,
2013-08-05 07:36:00,76.1,71.6,30.01,SW,236,0.0,0.0,86,0.00,CLR,,0.00,70.0,WeatherDisplay:10.37,2013-08-05 11:36:00,
2013-08-05 07:37:00,76.2,71.7,30.01,SW,236,0.0,0.0,86,0.00,CLR,,0.00,76.0,WeatherDisplay:10.37,2013-08-05 11:37:00,
2013-08-05 07:39:00,76.3,71.8,30.01,SW,236,0.0,0.0,86,0.00,CLR,,0.00,79.0,WeatherDisplay:10.37,2013-08-05 11:39:00,
2013-08-05 07:42:00,76.4,71.9,30.01,SW,236,0.0,0.0,86,0.00,CLR,,0.00,86.0,WeatherDisplay:10.37,2013-08-05 11:42:00,
2013-08-05 07:44:00,76.6,72.1,30.01,SW,236,1.2,0.0,86,0.00,CLR,,0.00,93.0,WeatherDisplay:10.37,2013-08-05 11:44:00,
2013-08-05 07:48:00,76.9,72.4,30.01,SW,236,0.0,0.0,86,0.00,CLR,,0.00,104.0,WeatherDisplay:10.37,2013-08-05 11:48:00,
2013-08-05 07:49:00,76.9,72.4,30.01,SW,236,1.2,0.0,86,0.00,CLR,,0.00,105.0,WeatherDisplay:10.37,2013-08-05 11:49:00,
2013-08-05 07:50:00,77.0,72.5,30.01,SW,236,1.2,0.0,86,0.00,CLR,,0.00,109.0,WeatherDisplay:10.37,2013-08-05 11:50:00,
2013-08-05 07:54:00,77.2,72.7,30.01,SW,236,0.0,0.0,86,0.00,CLR,,0.00,123.0,WeatherDisplay:10.37,2013-08-05 11:54:00,
2013-08-05 07:55:00,77.2,72.7,30.01,SW,236,0.0,0.0,86,0.00,CLR,,0.00,127.0,WeatherDisplay:10.37,2013-08-05 11:55:00,
2013-08-05 07:56:00,77.3,72.8,30.01,SW,236,0.0,0.0,86,0.00,CLR,,0.00,132.0,WeatherDisplay:10.37,2013-08-05 11:56:00,
2013-08-05 08:00:00,77.4,72.9,30.01,SW,236,1.2,0.0,86,0.00,CLR,,0.00,142.0,WeatherDisplay:10.37,2013-08-05 12:00:00,
2013-08-05 08:01:00,77.5,73.0,30.01,SW,236,0.0,0.0,86,0.00,CLR,,0.00,148.0,WeatherDisplay:10.37,2013-08-05 12:01:00,
2013-08-05 08:02:00,77.6,73.1,30.01,SW,236,0.0,0.0,86,0.00,CLR,,0.00,153.0,WeatherDisplay:10.37,2013-08-05 12:02:00,
2013-08-05 08:05:00,77.6,73.1,30.01,SW,236,0.0,0.0,86,0.00,CLR,,0.00,158.0,WeatherDisplay:10.37,2013-08-05 12:05:00,
2013-08-05 08:06:00,77.6,73.1,30.01,SW,236,0.0,0.0,86,0.00,CLR,,0.00,167.0,WeatherDisplay:10.37,2013-08-05 12:06:00,
2013-08-05 08:08:00,77.8,73.3,30.01,SW,236,0.0,0.0,86,0.00,CLR,,0.00,172.0,WeatherDisplay:10.37,2013-08-05 12:08:00,
2013-08-05 08:10:00,78.0,73.5,30.01,SW,236,1.2,0.0,86,0.00,CLR,,0.00,181.0,WeatherDisplay:10.37,2013-08-05 12:10:00,
2013-08-05 08:13:00,78.2,73.7,30.01,SW,236,0.0,0.0,86,0.00,CLR,,0.00,190.0,WeatherDisplay:10.37,2013-08-05 12:13:00,
2013-08-05 08:14:00,78.2,73.7,30.01,SW,236,0.0,0.0,86,0.00,CLR,,0.00,193.0,WeatherDisplay:10.37,2013-08-05 12:14:00,
2013-08-05 08:15:00,78.2,73.7,30.02,SW,236,0.0,0.0,86,0.00,CLR,,0.00,200.0,WeatherDisplay:10.37,2013-08-05 12:15:00,
2013-08-05 08:18:00,78.4,73.9,30.01,SW,236,0.0,0.0,86,0.00,CLR,,0.00,209.0,WeatherDisplay:10.37,2013-08-05 12:18:00,
2013-08-05 08:19:00,78.5,74.0,30.01,SW,236,0.0,0.0,86,0.00,CLR,,0.00,213.0,WeatherDisplay:10.37,2013-08-05 12:19:00,
2013-08-05 08:20:00,78.5,74.0,30.01,SW,236,0.0,0.0,86,0.00,CLR,,0.00,220.0,WeatherDisplay:10.37,2013-08-05 12:20:00,
2013-08-05 08:23:00,78.7,73.8,30.01,SW,236,0.0,0.0,85,0.00,CLR,,0.00,236.0,WeatherDisplay:10.37,2013-08-05 12:23:00,
2013-08-05 08:24:00,78.7,73.8,30.01,SW,236,0.0,0.0,85,0.00,CLR,,0.00,236.0,WeatherDisplay:10.37,2013-08-05 12:24:00,
2013-08-05 08:26:00,78.8,73.9,30.01,WSW,248,1.2,0.0,85,0.00,CLR,,0.00,246.0,WeatherDisplay:10.37,2013-08-05 12:26:00,
2013-08-05 08:30:00,79.1,74.2,30.01,WSW,248,0.0,0.0,85,0.00,CLR,,0.00,258.0,WeatherDisplay:10.37,2013-08-05 12:30:00,
2013-08-05 08:32:00,79.1,74.2,30.01,WSW,248,1.2,0.0,85,0.00,CLR,,0.00,267.0,WeatherDisplay:10.37,2013-08-05 12:32:00,
2013-08-05 08:36:00,79.4,74.5,30.01,WSW,248,0.0,0.0,85,0.00,CLR,,0.00,285.0,WeatherDisplay:10.37,2013-08-05 12:36:00,
2013-08-05 08:37:00,79.5,74.6,30.01,WSW,248,0.0,0.0,85,0.00,CLR,,0.00,288.0,WeatherDisplay:10.37,2013-08-05 12:37:00,
2013-08-05 08:41:00,79.8,74.9,30.01,West,275,1.2,0.0,85,0.00,CLR,,0.00,306.0,WeatherDisplay:10.37,2013-08-05 12:41:00,
2013-08-05 08:42:00,79.8,74.9,30.01,West,271,1.2,0.0,85,0.00,CLR,,0.00,311.0,WeatherDisplay:10.37,2013-08-05 12:42:00,
2013-08-05 08:43:00,79.9,75.0,30.01,West,271,0.0,0.0,85,0.00,CLR,,0.00,313.0,WeatherDisplay:10.37,2013-08-05 12:43:00,
2013-08-05 08:48:00,80.2,74.9,30.02,NW,325,1.2,0.0,84,0.00,CLR,,0.00,332.0,WeatherDisplay:10.37,2013-08-05 12:48:00,
2013-08-05 08:53:00,80.9,75.6,30.01,West,268,1.2,1.2,84,0.00,CLR,,0.00,357.0,WeatherDisplay:10.37,2013-08-05 12:53:00,
2013-08-05 09:03:00,81.6,76.3,30.01,WSW,252,1.2,1.2,84,0.00,CLR,,0.00,383.0,WeatherDisplay:10.37,2013-08-05 13:03:00,
2013-08-05 09:05:00,81.7,76.4,30.02,WNW,303,5.0,5.0,84,0.00,CLR,,0.00,394.0,WeatherDisplay:10.37,2013-08-05 13:05:00,
2013-08-05 09:07:00,81.8,76.8,30.02,WNW,300,3.5,3.5,85,0.00,CLR,,0.00,397.0,WeatherDisplay:10.37,2013-08-05 13:07:00,
2013-08-05 09:08:00,82.1,76.8,30.02,WNW,293,5.0,5.0,84,0.00,CLR,,0.00,401.0,WeatherDisplay:10.37,2013-08-05 13:08:00,
2013-08-05 09:10:00,82.1,77.1,30.02,West,275,0.0,0.0,85,0.00,CLR,,0.00,408.0,WeatherDisplay:10.37,2013-08-05 13:10:00,
2013-08-05 09:12:00,82.3,77.3,30.01,West,265,3.5,3.5,85,0.00,CLR,,0.00,415.0,WeatherDisplay:10.37,2013-08-05 13:12:00,
2013-08-05 09:13:00,82.4,77.4,30.01,West,267,0.0,0.2,85,0.00,CLR,,0.00,424.0,WeatherDisplay:10.37,2013-08-05 13:13:00,
2013-08-05 09:14:00,82.4,77.4,30.01,West,267,0.0,0.2,85,0.00,CLR,,0.00,424.0,WeatherDisplay:10.37,2013-08-05 13:14:00,
2013-08-05 09:15:00,82.6,77.6,30.01,West,268,1.0,1.0,85,0.00,CLR,,0.00,429.0,WeatherDisplay:10.37,2013-08-05 13:15:00,
2013-08-05 09:17:00,82.7,77.7,30.01,West,266,1.2,0.0,85,0.00,CLR,,0.00,439.0,WeatherDisplay:10.37,2013-08-05 13:17:00,
2013-08-05 09:18:00,82.9,77.6,30.01,West,261,0.0,0.3,84,0.00,CLR,,0.00,464.0,WeatherDisplay:10.37,2013-08-05 13:18:00,
2013-08-05 09:20:00,82.9,77.6,30.01,West,261,2.3,0.0,84,0.00,CLR,,0.00,438.0,WeatherDisplay:10.37,2013-08-05 13:20:00,
2013-08-05 09:22:00,83.2,77.9,30.02,SW,235,2.3,2.3,84,0.00,CLR,,0.00,475.0,WeatherDisplay:10.37,2013-08-05 13:22:00,
2013-08-05 09:25:00,83.5,78.2,30.02,WSW,248,0.0,0.0,84,0.00,CLR,,0.00,457.0,WeatherDisplay:10.37,2013-08-05 13:25:00,
2013-08-05 09:28:00,83.7,78.3,30.01,West,269,3.5,0.0,84,0.00,CLR,,0.00,424.0,WeatherDisplay:10.37,2013-08-05 13:28:00,
2013-08-05 09:30:00,84.1,78.7,30.01,North,355,3.5,0.0,84,0.00,CLR,,0.00,462.0,WeatherDisplay:10.37,2013-08-05 13:30:00,
2013-08-05 09:33:00,84.5,78.8,30.01,North,351,0.0,0.0,83,0.00,CLR,,0.00,503.0,WeatherDisplay:10.37,2013-08-05 13:33:00,
2013-08-05 09:34:00,84.6,78.9,30.01,North,351,0.0,0.0,83,0.00,CLR,,0.00,515.0,WeatherDisplay:10.37,2013-08-05 13:34:00,
2013-08-05 09:37:00,85.0,78.9,30.02,WNW,282,1.2,1.2,82,0.00,CLR,,0.00,517.0,WeatherDisplay:10.37,2013-08-05 13:37:00,
2013-08-05 09:38:00,85.1,79.0,30.02,WNW,282,2.3,0.0,82,0.00,CLR,,0.00,418.0,WeatherDisplay:10.37,2013-08-05 13:38:00,
2013-08-05 09:39:00,85.2,79.1,30.02,WNW,282,2.3,0.0,82,0.00,CLR,,0.00,418.0,WeatherDisplay:10.37,2013-08-05 13:39:00,
2013-08-05 09:42:00,85.5,79.0,30.02,SSE,157,0.0,0.2,81,0.00,CLR,,0.00,422.0,WeatherDisplay:10.37,2013-08-05 13:42:00,
2013-08-05 09:44:00,85.5,79.0,30.02,SSE,160,0.0,0.0,81,0.00,CLR,,0.00,244.0,WeatherDisplay:10.37,2013-08-05 13:44:00,
2013-08-05 09:45:00,85.5,78.6,30.02,West,265,1.0,1.0,80,0.00,CLR,,0.00,244.0,WeatherDisplay:10.37,2013-08-05 13:45:00,
2013-08-05 09:49:00,85.4,78.5,30.02,WNW,286,3.5,3.5,80,0.00,CLR,,0.00,366.0,WeatherDisplay:10.37,2013-08-05 13:49:00,
2013-08-05 09:50:00,85.4,78.5,30.01,WNW,284,3.5,3.5,80,0.00,CLR,,0.00,366.0,WeatherDisplay:10.37,2013-08-05 13:50:00,
2013-08-05 09:54:00,85.2,78.3,30.02,West,266,3.5,3.5,80,0.00,CLR,,0.00,202.0,WeatherDisplay:10.37,2013-08-05 13:54:00,
2013-08-05 09:55:00,85.2,78.3,30.02,West,279,1.0,0.0,80,0.00,CLR,,0.00,592.0,WeatherDisplay:10.37,2013-08-05 13:55:00,
2013-08-05 09:56:00,85.2,78.3,30.02,West,278,0.0,0.1,80,0.00,CLR,,0.00,592.0,WeatherDisplay:10.37,2013-08-05 13:56:00,
2013-08-05 09:59:00,85.4,78.5,30.02,SW,233,2.3,2.3,80,0.00,CLR,,0.00,599.0,WeatherDisplay:10.37,2013-08-05 13:59:00,
2013-08-05 10:01:00,85.4,78.5,30.02,NW,314,4.0,4.0,80,0.00,CLR,,0.00,172.0,WeatherDisplay:10.37,2013-08-05 14:01:00,
2013-08-05 10:03:00,85.4,78.1,30.02,WNW,286,3.5,3.5,79,0.00,CLR,,0.00,629.0,WeatherDisplay:10.37,2013-08-05 14:03:00,
2013-08-05 10:06:00,85.4,78.1,30.02,NW,311,5.8,5.8,79,0.00,CLR,,0.00,169.0,WeatherDisplay:10.37,2013-08-05 14:06:00,
2013-08-05 10:07:00,85.4,78.1,30.02,NNW,332,5.8,5.8,79,0.00,CLR,,0.00,169.0,WeatherDisplay:10.37,2013-08-05 14:07:00,
2013-08-05 10:08:00,85.4,78.1,30.02,NW,326,3.5,3.5,79,0.00,CLR,,0.00,664.0,WeatherDisplay:10.37,2013-08-05 14:08:00,
2013-08-05 10:11:00,85.8,78.5,30.02,WNW,294,5.0,5.0,79,0.00,CLR,,0.00,682.0,WeatherDisplay:10.37,2013-08-05 14:11:00,
2013-08-05 10:12:00,85.9,78.6,30.02,WNW,298,5.8,5.8,79,0.00,CLR,,0.00,682.0,WeatherDisplay:10.37,2013-08-05 14:12:00,
2013-08-05 10:14:00,86.1,78.8,30.02,NNW,329,1.2,0.0,79,0.00,CLR,,0.00,659.0,WeatherDisplay:10.37,2013-08-05 14:14:00,
2013-08-05 10:15:00,86.4,79.1,30.01,North,355,4.6,4.6,79,0.00,CLR,,0.00,749.0,WeatherDisplay:10.37,2013-08-05 14:15:00,
2013-08-05 10:17:00,86.5,78.8,30.01,WNW,290,6.0,6.0,78,0.00,CLR,,0.00,200.0,WeatherDisplay:10.37,2013-08-05 14:17:00,
2013-08-05 10:19:00,86.5,78.4,30.01,NNW,344,5.8,5.8,77,0.00,CLR,,0.00,763.0,WeatherDisplay:10.37,2013-08-05 14:19:00,
2013-08-05 10:22:00,86.6,79.3,30.01,NNE,30,0.0,0.0,79,0.00,CLR,,0.00,763.0,WeatherDisplay:10.37,2013-08-05 14:22:00,
2013-08-05 10:24:00,86.7,79.0,30.01,West,279,0.0,0.0,78,0.00,CLR,,0.00,343.0,WeatherDisplay:10.37,2013-08-05 14:24:00,
2013-08-05 10:27:00,86.8,78.7,30.01,WSW,247,3.5,3.5,77,0.00,CLR,,0.00,770.0,WeatherDisplay:10.37,2013-08-05 14:27:00,
2013-08-05 10:28:00,86.9,78.8,30.01,WSW,246,3.5,3.5,77,0.00,CLR,,0.00,770.0,WeatherDisplay:10.37,2013-08-05 14:28:00,
2013-08-05 10:29:00,87.0,79.3,30.01,WSW,246,1.2,0.0,78,0.00,CLR,,0.00,770.0,WeatherDisplay:10.37,2013-08-05 14:29:00,
2013-08-05 10:30:00,87.1,79.0,30.01,WSW,246,0.0,0.0,77,0.00,CLR,,0.00,770.0,WeatherDisplay:10.37,2013-08-05 14:30:00,
2013-08-05 10:33:00,87.3,78.8,30.01,WSW,250,0.0,0.0,76,0.00,CLR,,0.00,248.0,WeatherDisplay:10.37,2013-08-05 14:33:00,
2013-08-05 10:35:00,87.3,78.4,30.01,NNW,329,3.5,3.5,75,0.00,CLR,,0.00,250.0,WeatherDisplay:10.37,2013-08-05 14:35:00,
2013-08-05 10:38:00,87.3,78.8,30.01,NW,312,1.2,0.0,76,0.00,CLR,,0.00,216.0,WeatherDisplay:10.37,2013-08-05 14:38:00,
2013-08-05 10:40:00,87.2,78.7,30.01,WNW,298,2.0,2.0,76,0.00,CLR,,0.00,227.0,WeatherDisplay:10.37,2013-08-05 14:40:00,
2013-08-05 10:43:00,87.1,78.6,30.01,WNW,285,3.5,3.5,76,0.00,CLR,,0.00,274.0,WeatherDisplay:10.37,2013-08-05 14:43:00,
2013-08-05 10:45:00,87.0,78.5,30.01,NNE,25,3.5,3.5,76,0.00,CLR,,0.00,777.0,WeatherDisplay:10.37,2013-08-05 14:45:00,
2013-08-05 10:47:00,87.1,78.6,30.01,NW,323,4.0,4.0,76,0.00,CLR,,0.00,784.0,WeatherDisplay:10.37,2013-08-05 14:47:00,
2013-08-05 10:49:00,87.2,78.7,30.01,WSW,239,4.6,4.6,76,0.00,CLR,,0.00,802.0,WeatherDisplay:10.37,2013-08-05 14:49:00,
2013-08-05 10:51:00,87.3,78.8,30.01,WNW,292,3.5,3.5,76,0.00,CLR,,0.00,821.0,WeatherDisplay:10.37,2013-08-05 14:51:00,
2013-08-05 10:52:00,87.5,78.6,30.01,SW,231,3.5,3.5,75,0.00,CLR,,0.00,849.0,WeatherDisplay:10.37,2013-08-05 14:52:00,
2013-08-05 10:55:00,87.9,79.0,30.01,West,261,5.0,5.0,75,0.00,CLR,,0.00,860.0,WeatherDisplay:10.37,2013-08-05 14:55:00,
2013-08-05 10:57:00,88.0,78.3,30.01,West,272,5.8,5.8,73,0.00,CLR,,0.00,849.0,WeatherDisplay:10.37,2013-08-05 14:57:00,
2013-08-05 10:58:00,88.1,78.8,30.01,West,265,4.6,4.6,74,0.00,CLR,,0.00,882.0,WeatherDisplay:10.37,2013-08-05 14:58:00,
2013-08-05 11:00:00,88.3,78.5,30.01,North,5,1.2,0.0,73,0.00,CLR,,0.00,874.0,WeatherDisplay:10.37,2013-08-05 15:00:00,
2013-08-05 11:02:00,88.4,79.1,30.01,NW,312,4.6,4.6,74,0.00,CLR,,0.00,874.0,WeatherDisplay:10.37,2013-08-05 15:02:00,
2013-08-05 11:03:00,88.5,78.7,30.01,West,279,5.8,5.8,73,0.00,CLR,,0.00,803.0,WeatherDisplay:10.37,2013-08-05 15:03:00,
2013-08-05 11:06:00,88.7,78.5,30.01,NW,312,5.8,5.8,72,0.00,CLR,,0.00,965.0,WeatherDisplay:10.37,2013-08-05 15:06:00,
2013-08-05 11:07:00,88.6,78.4,30.01,NW,313,5.8,5.8,72,0.00,CLR,,0.00,944.0,WeatherDisplay:10.37,2013-08-05 15:07:00,
2013-08-05 11:08:00,88.8,78.2,30.01,NNW,339,6.9,6.9,71,0.00,CLR,,0.00,1004.0,WeatherDisplay:10.37,2013-08-05 15:08:00,
2013-08-05 11:12:00,89.1,78.5,30.01,NNE,30,5.8,5.8,71,0.00,CLR,,0.00,733.0,WeatherDisplay:10.37,2013-08-05 15:12:00,
2013-08-05 11:13:00,89.2,79.0,30.01,NNW,344,3.5,0.0,72,0.00,CLR,,0.00,733.0,WeatherDisplay:10.37,2013-08-05 15:13:00,
2013-08-05 11:17:00,89.3,78.7,30.01,WNW,282,3.5,3.5,71,0.00,CLR,,0.00,568.0,WeatherDisplay:10.37,2013-08-05 15:17:00,
2013-08-05 11:18:00,89.2,78.6,30.01,North,350,5.0,5.0,71,0.00,CLR,,0.00,568.0,WeatherDisplay:10.37,2013-08-05 15:18:00,
2013-08-05 11:22:00,88.8,78.2,30.01,West,277,3.5,3.5,71,0.00,CLR,,0.00,220.0,WeatherDisplay:10.37,2013-08-05 15:22:00,
2013-08-05 11:23:00,88.6,78.0,30.01,West,266,3.5,3.5,71,0.00,CLR,,0.00,269.0,WeatherDisplay:10.37,2013-08-05 15:23:00,
2013-08-05 11:25:00,88.5,78.7,30.01,WNW,286,0.0,0.0,73,0.00,CLR,,0.00,260.0,WeatherDisplay:10.37,2013-08-05 15:25:00,
2013-08-05 11:27:00,88.4,78.6,30.01,West,265,0.0,0.0,73,0.00,CLR,,0.00,990.0,WeatherDisplay:10.37,2013-08-05 15:27:00,
2013-08-05 11:28:00,88.4,78.6,30.01,West,265,0.0,0.0,73,0.00,CLR,,0.00,990.0,WeatherDisplay:10.37,2013-08-05 15:28:00,
2013-08-05 11:30:00,88.6,79.2,30.01,West,271,3.5,3.5,74,0.00,CLR,,0.00,990.0,WeatherDisplay:10.37,2013-08-05 15:30:00,
2013-08-05 11:33:00,88.6,78.0,30.00,WNW,295,3.5,0.0,71,0.00,CLR,,0.00,211.0,WeatherDisplay:10.37,2013-08-05 15:33:00,
2013-08-05 11:34:00,88.6,78.0,30.00,West,275,0.0,0.0,71,0.00,CLR,,0.00,250.0,WeatherDisplay:10.37,2013-08-05 15:34:00,
2013-08-05 11:35:00,88.5,77.5,30.00,West,275,1.2,1.2,70,0.00,CLR,,0.00,250.0,WeatherDisplay:10.37,2013-08-05 15:35:00,
2013-08-05 11:37:00,88.5,77.5,30.00,West,275,0.0,0.0,70,0.00,CLR,,0.00,990.0,WeatherDisplay:10.37,2013-08-05 15:37:00,
2013-08-05 11:38:00,88.6,78.0,30.00,WNW,288,0.0,0.0,71,0.00,CLR,,0.00,998.0,WeatherDisplay:10.37,2013-08-05 15:38:00,
2013-08-05 11:39:00,88.7,78.1,30.00,WNW,286,1.2,0.0,71,0.00,CLR,,0.00,1014.0,WeatherDisplay:10.37,2013-08-05 15:39:00,
2013-08-05 11:42:00,89.2,78.1,30.00,North,355,2.0,2.0,70,0.00,CLR,,0.00,942.0,WeatherDisplay:10.37,2013-08-05 15:42:00,
2013-08-05 11:44:00,89.4,77.9,30.00,North,350,3.5,3.5,69,0.00,CLR,,0.00,258.0,WeatherDisplay:10.37,2013-08-05 15:44:00,
2013-08-05 11:47:00,89.6,78.1,30.00,WNW,296,1.2,0.0,69,0.00,CLR,,0.00,297.0,WeatherDisplay:10.37,2013-08-05 15:47:00,
2013-08-05 11:48:00,89.6,78.1,30.00,West,269,4.0,4.0,69,0.00,CLR,,0.00,260.0,WeatherDisplay:10.37,2013-08-05 15:48:00,
2013-08-05 11:49:00,89.5,77.5,30.00,West,261,4.6,4.6,68,0.00,CLR,,0.00,257.0,WeatherDisplay:10.37,2013-08-05 15:49:00,
2013-08-05 11:50:00,89.3,77.8,30.00,WNW,292,3.5,3.5,69,0.00,CLR,,0.00,190.0,WeatherDisplay:10.37,2013-08-05 15:50:00,
2013-08-05 11:53:00,89.2,77.7,30.00,WNW,292,0.0,0.0,69,0.00,CLR,,0.00,172.0,WeatherDisplay:10.37,2013-08-05 15:53:00,
2013-08-05 11:56:00,89.0,77.9,30.00,WNW,292,0.0,0.0,70,0.00,CLR,,0.00,251.0,WeatherDisplay:10.37,2013-08-05 15:56:00,
2013-08-05 11:57:00,88.9,77.4,30.00,WNW,292,0.0,0.0,69,0.00,CLR,,0.00,712.0,WeatherDisplay:10.37,2013-08-05 15:57:00,
2013-08-05 11:58:00,88.9,77.8,30.00,East,91,1.0,1.0,70,0.00,CLR,,0.00,712.0,WeatherDisplay:10.37,2013-08-05 15:58:00,
2013-08-05 11:59:00,88.8,78.2,30.00,East,94,2.3,2.3,71,0.00,CLR,,0.00,712.0,WeatherDisplay:10.37,2013-08-05 15:59:00,
2013-08-05 12:02:00,89.0,77.9,30.00,SW,220,3.0,3.0,70,0.00,CLR,,0.00,1014.0,WeatherDisplay:10.37,2013-08-05 16:02:00,
2013-08-05 12:04:00,89.0,77.9,30.00,SW,223,3.5,0.0,70,0.00,CLR,,0.00,1000.0,WeatherDisplay:10.37,2013-08-05 16:04:00,
2013-08-05 12:09:00,89.6,77.6,30.00,SW,225,0.0,0.0,68,0.00,CLR,,0.00,1041.0,WeatherDisplay:10.37,2013-08-05 16:09:00,
2013-08-05 12:10:00,89.6,77.2,30.00,SW,225,0.0,0.0,67,0.00,CLR,,0.00,1041.0,WeatherDisplay:10.37,2013-08-05 16:10:00,
2013-08-05 12:11:00,89.7,77.3,30.00,SW,223,0.0,0.0,67,0.00,CLR,,0.00,229.0,WeatherDisplay:10.37,2013-08-05 16:11:00,
2013-08-05 12:14:00,89.8,77.8,30.00,SW,223,0.0,0.0,68,0.00,CLR,,0.00,301.0,WeatherDisplay:10.37,2013-08-05 16:14:00,
2013-08-05 12:15:00,89.8,77.8,30.00,SW,223,0.0,0.0,68,0.00,CLR,,0.00,301.0,WeatherDisplay:10.37,2013-08-05 16:15:00,
2013-08-05 12:17:00,89.7,77.7,30.00,WSW,258,1.2,0.0,68,0.00,CLR,,0.00,381.0,WeatherDisplay:10.37,2013-08-05 16:17:00,
2013-08-05 12:20:00,89.8,77.8,30.00,NW,317,2.0,2.0,68,0.00,CLR,,0.00,381.0,WeatherDisplay:10.37,2013-08-05 16:20:00,
2013-08-05 12:22:00,90.0,77.6,30.00,WNW,296,3.5,3.5,67,0.00,CLR,,0.00,1060.0,WeatherDisplay:10.37,2013-08-05 16:22:00,
2013-08-05 12:25:00,90.6,77.7,30.00,WNW,302,5.8,5.8,66,0.00,CLR,,0.00,1102.0,WeatherDisplay:10.37,2013-08-05 16:25:00,
2013-08-05 12:26:00,90.7,77.8,30.00,WNW,300,5.8,0.0,66,0.00,CLR,,0.00,1083.0,WeatherDisplay:10.37,2013-08-05 16:26:00,
2013-08-05 12:27:00,90.9,77.5,30.00,WNW,294,1.2,0.0,65,0.00,CLR,,0.00,1123.0,WeatherDisplay:10.37,2013-08-05 16:27:00,
2013-08-05 12:31:00,91.0,77.6,30.00,NW,312,3.0,3.0,65,0.00,CLR,,0.00,1123.0,WeatherDisplay:10.37,2013-08-05 16:31:00,
2013-08-05 12:32:00,91.0,77.6,30.00,NW,312,2.0,2.0,65,0.00,CLR,,0.00,1123.0,WeatherDisplay:10.37,2013-08-05 16:32:00,
2013-08-05 12:33:00,91.1,77.2,30.00,NNW,339,3.5,3.5,64,0.00,CLR,,0.00,431.0,WeatherDisplay:10.37,2013-08-05 16:33:00,
2013-08-05 12:37:00,91.4,77.5,30.00,West,264,5.0,5.0,64,0.00,CLR,,0.00,418.0,WeatherDisplay:10.37,2013-08-05 16:37:00,
2013-08-05 12:39:00,91.4,78.0,30.00,North,355,3.5,3.5,65,0.00,CLR,,0.00,418.0,WeatherDisplay:10.37,2013-08-05 16:39:00,
2013-08-05 12:40:00,91.6,78.6,30.00,North,360,3.5,0.0,66,0.00,CLR,,0.00,418.0,WeatherDisplay:10.37,2013-08-05 16:40:00,
2013-08-05 12:42:00,91.8,78.4,30.00,North,355,0.0,0.0,65,0.00,CLR,,0.00,418.0,WeatherDisplay:10.37,2013-08-05 16:42:00,
2013-08-05 12:44:00,91.8,77.4,29.99,WSW,257,3.5,3.5,63,0.00,CLR,,0.00,417.0,WeatherDisplay:10.37,2013-08-05 16:44:00,
2013-08-05 12:46:00,91.8,77.9,29.99,WSW,257,0.0,0.0,64,0.00,CLR,,0.00,401.0,WeatherDisplay:10.37,2013-08-05 16:46:00,
2013-08-05 12:47:00,91.9,78.0,29.99,WSW,257,0.0,0.0,64,0.00,CLR,,0.00,392.0,WeatherDisplay:10.37,2013-08-05 16:47:00,
2013-08-05 12:50:00,92.1,77.7,29.99,WNW,293,0.0,0.0,63,0.00,CLR,,0.00,329.0,WeatherDisplay:10.37,2013-08-05 16:50:00,
2013-08-05 12:52:00,92.2,78.7,29.99,NW,317,6.0,6.0,65,0.00,CLR,,0.00,362.0,WeatherDisplay:10.37,2013-08-05 16:52:00,
2013-08-05 12:54:00,92.2,77.3,29.99,WNW,290,4.6,4.6,62,0.00,CLR,,0.00,325.0,WeatherDisplay:10.37,2013-08-05 16:54:00,
2013-08-05 12:57:00,92.0,77.1,29.99,SW,236,1.2,1.2,62,0.00,CLR,,0.00,589.0,WeatherDisplay:10.37,2013-08-05 16:57:00,
2013-08-05 12:58:00,91.9,77.5,29.99,WSW,243,0.0,0.0,63,0.00,CLR,,0.00,589.0,WeatherDisplay:10.37,2013-08-05 16:58:00,
2013-08-05 13:00:00,91.8,76.9,29.99,WSW,257,0.0,0.0,62,0.00,CLR,,0.00,255.0,WeatherDisplay:10.37,2013-08-05 17:00:00,
2013-08-05 13:02:00,91.7,76.8,29.99,West,267,0.0,0.0,62,0.00,CLR,,0.00,246.0,WeatherDisplay:10.37,2013-08-05 17:02:00,
2013-08-05 13:03:00,91.7,77.3,29.99,West,267,0.0,0.0,63,0.00,CLR,,0.00,221.0,WeatherDisplay:10.37,2013-08-05 17:03:00,
2013-08-05 13:05:00,91.6,76.7,29.99,SW,233,4.6,4.6,62,0.00,CLR,,0.00,204.0,WeatherDisplay:10.37,2013-08-05 17:05:00,
2013-08-05 13:07:00,91.1,76.7,29.99,SW,233,0.0,0.0,63,0.00,CLR,,0.00,221.0,WeatherDisplay:10.37,2013-08-05 17:07:00,
2013-08-05 13:08:00,91.0,77.1,29.98,WSW,244,1.2,0.0,64,0.00,CLR,,0.00,232.0,WeatherDisplay:10.37,2013-08-05 17:08:00,
2013-08-05 13:11:00,90.8,76.9,29.98,WSW,244,0.0,0.0,64,0.00,CLR,,0.00,258.0,WeatherDisplay:10.37,2013-08-05 17:11:00,
2013-08-05 13:12:00,90.8,77.4,29.98,WSW,244,0.0,0.0,65,0.00,CLR,,0.00,250.0,WeatherDisplay:10.37,2013-08-05 17:12:00,
2013-08-05 13:15:00,91.1,77.7,29.98,NW,324,5.0,5.0,65,0.00,CLR,,0.00,1039.0,WeatherDisplay:10.37,2013-08-05 17:15:00,
2013-08-05 13:17:00,91.4,77.0,29.98,NE,49,5.8,5.8,63,0.00,CLR,,0.00,1065.0,WeatherDisplay:10.37,2013-08-05 17:17:00,
2013-08-05 13:18:00,91.4,77.0,29.98,NNW,339,5.8,5.8,63,0.00,CLR,,0.00,1067.0,WeatherDisplay:10.37,2013-08-05 17:18:00,
2013-08-05 13:20:00,92.0,78.1,29.98,North,10,3.5,0.0,64,0.00,CLR,,0.00,1048.0,WeatherDisplay:10.37,2013-08-05 17:20:00,
2013-08-05 13:22:00,92.2,77.3,29.97,North,355,1.2,0.0,62,0.00,CLR,,0.00,1039.0,WeatherDisplay:10.37,2013-08-05 17:22:00,
2013-08-05 13:23:00,92.3,77.4,29.97,North,355,1.2,0.0,62,0.00,CLR,,0.00,1034.0,WeatherDisplay:10.37,2013-08-05 17:23:00,
2013-08-05 13:26:00,92.7,77.3,29.98,NW,309,5.8,5.8,61,0.00,CLR,,0.00,1046.0,WeatherDisplay:10.37,2013-08-05 17:26:00,
2013-08-05 13:28:00,93.0,77.1,29.97,North,355,6.9,6.9,60,0.00,CLR,,0.00,1046.0,WeatherDisplay:10.37,2013-08-05 17:28:00,
2013-08-05 13:29:00,93.1,77.2,29.97,North,350,6.9,6.9,60,0.00,CLR,,0.00,258.0,WeatherDisplay:10.37,2013-08-05 17:29:00,
2013-08-05 13:33:00,93.0,75.5,29.97,NW,318,3.5,3.5,57,0.00,CLR,,0.00,195.0,WeatherDisplay:10.37,2013-08-05 17:33:00,
2013-08-05 13:35:00,92.8,76.4,29.97,NNW,348,0.0,0.0,59,0.00,CLR,,0.00,179.0,WeatherDisplay:10.37,2013-08-05 17:35:00,
2013-08-05 13:39:00,91.8,76.9,29.97,NNW,345,0.0,0.0,62,0.00,CLR,,0.00,186.0,WeatherDisplay:10.37,2013-08-05 17:39:00,
2013-08-05 13:41:00,91.5,77.1,29.97,NNW,336,0.0,0.0,63,0.00,CLR,,0.00,197.0,WeatherDisplay:10.37,2013-08-05 17:41:00,
2013-08-05 13:45:00,91.1,77.7,29.97,NW,323,0.0,0.0,65,0.00,CLR,,0.00,218.0,WeatherDisplay:10.37,2013-08-05 17:45:00,
2013-08-05 13:46:00,91.1,77.7,29.97,NW,323,0.0,0.0,65,0.00,CLR,,0.00,167.0,WeatherDisplay:10.37,2013-08-05 17:46:00,
2013-08-05 13:47:00,91.1,77.7,29.98,NW,313,0.0,0.0,65,0.00,CLR,,0.00,162.0,WeatherDisplay:10.37,2013-08-05 17:47:00,
2013-08-05 13:50:00,91.0,77.6,29.98,SSW,209,3.5,3.5,65,0.00,CLR,,0.00,207.0,WeatherDisplay:10.37,2013-08-05 17:50:00,
2013-08-05 13:52:00,90.9,77.5,29.97,SSW,211,2.0,2.0,65,0.00,CLR,,0.00,220.0,WeatherDisplay:10.37,2013-08-05 17:52:00,
2013-08-05 13:55:00,90.8,77.9,29.97,SSW,212,0.0,0.0,66,0.00,CLR,,0.00,353.0,WeatherDisplay:10.37,2013-08-05 17:55:00,
2013-08-05 13:57:00,90.7,78.2,29.97,SSW,211,0.0,0.0,67,0.00,CLR,,0.00,353.0,WeatherDisplay:10.37,2013-08-05 17:57:00,
2013-08-05 13:59:00,90.6,78.1,29.97,ENE,63,11.5,11.5,67,0.00,CLR,,0.00,362.0,WeatherDisplay:10.37,2013-08-05 17:59:00,
2013-08-05 14:00:00,90.4,77.9,29.97,East,100,4.6,4.6,67,0.00,CLR,,0.00,362.0,WeatherDisplay:10.37,2013-08-05 18:00:00,
2013-08-05 14:02:00,90.1,77.7,29.96,ESE,109,5.8,5.8,67,0.00,CLR,,0.00,232.0,WeatherDisplay:10.37,2013-08-05 18:02:00,
2013-08-05 14:04:00,89.7,78.2,29.96,East,84,7.0,7.0,69,0.00,CLR,,0.00,197.0,WeatherDisplay:10.37,2013-08-05 18:04:00,
2013-08-05 14:05:00,89.5,78.4,29.96,ENE,78,8.1,8.1,70,0.00,CLR,,0.00,206.0,WeatherDisplay:10.37,2013-08-05 18:05:00,
2013-08-05 14:07:00,88.9,78.3,29.96,East,89,4.6,4.6,71,0.00,CLR,,0.00,190.0,WeatherDisplay:10.37,2013-08-05 18:07:00,
2013-08-05 14:09:00,88.5,78.3,29.96,East,91,3.5,3.5,72,0.00,CLR,,0.00,200.0,WeatherDisplay:10.37,2013-08-05 18:09:00,
2013-08-05 14:11:00,88.2,78.0,29.96,East,90,0.0,0.0,72,0.00,CLR,,0.00,234.0,WeatherDisplay:10.37,2013-08-05 18:11:00,
2013-08-05 14:12:00,88.1,77.9,29.96,East,88,0.0,0.0,72,0.00,CLR,,0.00,234.0,WeatherDisplay:10.37,2013-08-05 18:12:00,
2013-08-05 14:13:00,88.0,78.3,29.96,SE,145,1.2,1.2,73,0.00,CLR,,0.00,1041.0,WeatherDisplay:10.37,2013-08-05 18:13:00,
2013-08-05 14:14:00,88.1,78.8,29.96,ENE,63,5.8,5.8,74,0.00,CLR,,0.00,1074.0,WeatherDisplay:10.37,2013-08-05 18:14:00,
2013-08-05 14:17:00,88.2,78.9,29.96,SE,130,10.4,10.4,74,0.00,CLR,,0.00,1172.0,WeatherDisplay:10.37,2013-08-05 18:17:00,
2013-08-05 14:18:00,88.2,78.4,29.96,ESE,111,8.1,8.1,73,0.00,CLR,,0.00,1172.0,WeatherDisplay:10.37,2013-08-05 18:18:00,
2013-08-05 14:22:00,88.1,78.8,29.96,ENE,71,4.6,4.6,74,0.00,CLR,,0.00,271.0,WeatherDisplay:10.37,2013-08-05 18:22:00,
2013-08-05 14:23:00,88.0,78.7,29.95,East,101,4.6,4.6,74,0.00,CLR,,0.00,237.0,WeatherDisplay:10.37,2013-08-05 18:23:00,
2013-08-05 14:24:00,88.0,78.7,29.95,East,96,3.5,3.5,74,0.00,CLR,,0.00,225.0,WeatherDisplay:10.37,2013-08-05 18:24:00,
2013-08-05 14:27:00,88.0,78.7,29.95,ENE,74,1.2,1.2,74,0.00,CLR,,0.00,244.0,WeatherDisplay:10.37,2013-08-05 18:27:00,
2013-08-05 14:28:00,87.9,78.2,29.95,ESE,119,1.2,1.2,73,0.00,CLR,,0.00,244.0,WeatherDisplay:10.37,2013-08-05 18:28:00,
2013-08-05 14:30:00,87.8,77.6,29.95,ESE,115,4.6,4.6,72,0.00,CLR,,0.00,269.0,WeatherDisplay:10.37,2013-08-05 18:30:00,
2013-08-05 14:32:00,87.7,77.5,29.95,East,99,5.8,5.8,72,0.00,CLR,,0.00,269.0,WeatherDisplay:10.37,2013-08-05 18:32:00,
2013-08-05 14:35:00,87.3,77.6,29.95,South,182,1.2,0.0,73,0.00,CLR,,0.00,158.0,WeatherDisplay:10.37,2013-08-05 18:35:00,
2013-08-05 14:37:00,87.2,77.5,29.95,South,185,0.0,0.0,73,0.00,CLR,,0.00,156.0,WeatherDisplay:10.37,2013-08-05 18:37:00,
2013-08-05 14:40:00,86.8,77.1,29.96,South,180,5.8,5.8,73,0.00,CLR,,0.00,220.0,WeatherDisplay:10.37,2013-08-05 18:40:00,
2013-08-05 14:42:00,86.6,77.3,29.96,SSW,210,1.2,1.2,74,0.00,CLR,,0.00,214.0,WeatherDisplay:10.37,2013-08-05 18:42:00,
2013-08-05 14:43:00,86.4,77.1,29.96,SE,130,1.2,0.0,74,0.00,CLR,,0.00,281.0,WeatherDisplay:10.37,2013-08-05 18:43:00,
2013-08-05 14:46:00,86.2,76.9,29.96,SE,144,0.0,0.0,74,0.00,CLR,,0.00,281.0,WeatherDisplay:10.37,2013-08-05 18:46:00,
2013-08-05 14:47:00,86.2,76.9,29.96,SE,128,1.2,0.0,74,0.00,CLR,,0.00,281.0,WeatherDisplay:10.37,2013-08-05 18:47:00,
2013-08-05 14:49:00,86.2,76.9,29.96,SE,128,0.0,0.0,74,0.00,CLR,,0.00,872.0,WeatherDisplay:10.37,2013-08-05 18:49:00,
2013-08-05 14:53:00,86.6,77.3,29.95,South,182,0.0,0.0,74,0.00,CLR,,0.00,791.0,WeatherDisplay:10.37,2013-08-05 18:53:00,
2013-08-05 14:54:00,86.7,77.4,29.95,East,93,3.5,3.5,74,0.00,CLR,,0.00,789.0,WeatherDisplay:10.37,2013-08-05 18:54:00,
2013-08-05 14:58:00,87.2,77.9,29.95,ESE,116,3.5,0.0,74,0.00,CLR,,0.00,580.0,WeatherDisplay:10.37,2013-08-05 18:58:00,
2013-08-05 14:59:00,87.5,78.6,29.95,ESE,117,3.5,3.5,75,0.00,CLR,,0.00,552.0,WeatherDisplay:10.37,2013-08-05 18:59:00,
2013-08-05 15:03:00,87.5,77.8,29.94,South,174,3.5,0.0,73,0.00,CLR,,0.00,443.0,WeatherDisplay:10.37,2013-08-05 19:03:00,
2013-08-05 15:04:00,87.6,77.9,29.94,ESE,103,0.0,0.0,73,0.00,CLR,,0.00,429.0,WeatherDisplay:10.37,2013-08-05 19:04:00,
2013-08-05 15:05:00,87.5,77.4,29.94,South,174,2.3,2.3,72,0.00,CLR,,0.00,392.0,WeatherDisplay:10.37,2013-08-05 19:05:00,
2013-08-05 15:09:00,87.5,77.4,29.94,SE,136,0.0,0.0,72,0.00,CLR,,0.00,271.0,WeatherDisplay:10.37,2013-08-05 19:09:00,
2013-08-05 15:10:00,87.5,77.4,29.94,SE,136,0.0,0.0,72,0.00,CLR,,0.00,262.0,WeatherDisplay:10.37,2013-08-05 19:10:00,
2013-08-05 15:11:00,87.5,77.4,29.94,ESE,121,1.2,0.0,72,0.00,CLR,,0.00,253.0,WeatherDisplay:10.37,2013-08-05 19:11:00,
2013-08-05 15:14:00,87.2,76.6,29.94,East,96,8.1,8.1,71,0.00,CLR,,0.00,279.0,WeatherDisplay:10.37,2013-08-05 19:14:00,
2013-08-05 15:17:00,86.4,76.3,29.94,East,96,4.6,4.6,72,0.00,CLR,,0.00,320.0,WeatherDisplay:10.37,2013-08-05 19:17:00,
2013-08-05 15:20:00,85.9,76.2,29.94,ESE,108,1.2,1.2,73,0.00,CLR,,0.00,359.0,WeatherDisplay:10.37,2013-08-05 19:20:00,
2013-08-05 15:23:00,85.7,76.0,29.94,ESE,110,3.5,3.5,73,0.00,CLR,,0.00,339.0,WeatherDisplay:10.37,2013-08-05 19:23:00,
2013-08-05 15:24:00,85.6,75.9,29.94,SE,133,1.2,0.0,73,0.00,CLR,,0.00,311.0,WeatherDisplay:10.37,2013-08-05 19:24:00,
2013-08-05 15:25:00,85.6,75.9,29.94,SE,130,0.0,0.0,73,0.00,CLR,,0.00,301.0,WeatherDisplay:10.37,2013-08-05 19:25:00,
2013-08-05 15:28:00,85.6,74.7,29.94,East,92,5.0,5.0,70,0.00,CLR,,0.00,274.0,WeatherDisplay:10.37,2013-08-05 19:28:00,
2013-08-05 15:29:00,85.4,74.5,29.94,SE,142,8.1,8.1,70,0.00,CLR,,0.00,271.0,WeatherDisplay:10.37,2013-08-05 19:29:00,
2013-08-05 15:30:00,85.0,74.1,29.94,East,81,4.6,4.6,70,0.00,CLR,,0.00,262.0,WeatherDisplay:10.37,2013-08-05 19:30:00,
2013-08-05 15:33:00,84.1,74.1,29.94,ESE,110,2.3,0.0,72,0.00,CLR,,0.00,248.0,WeatherDisplay:10.37,2013-08-05 19:33:00,
2013-08-05 15:34:00,83.9,73.9,29.94,ESE,121,0.0,1.0,72,0.00,CLR,,0.00,243.0,WeatherDisplay:10.37,2013-08-05 19:34:00,
2013-08-05 15:36:00,83.5,73.9,29.94,SE,128,3.5,3.5,73,0.00,CLR,,0.00,239.0,WeatherDisplay:10.37,2013-08-05 19:36:00,
2013-08-05 15:38:00,83.1,73.5,29.94,ESE,112,1.2,0.0,73,0.00,CLR,,0.00,241.0,WeatherDisplay:10.37,2013-08-05 19:38:00,
2013-08-05 15:39:00,83.0,73.9,29.93,ESE,109,0.0,0.0,74,0.00,CLR,,0.00,241.0,WeatherDisplay:10.37,2013-08-05 19:39:00,
2013-08-05 15:40:00,82.9,73.8,29.93,East,101,0.0,0.0,74,0.00,CLR,,0.00,241.0,WeatherDisplay:10.37,2013-08-05 19:40:00,
2013-08-05 15:42:00,82.9,74.2,29.93,NE,54,5.0,5.0,75,0.00,CLR,,0.00,234.0,WeatherDisplay:10.37,2013-08-05 19:42:00,
2013-08-05 15:43:00,82.8,74.1,29.93,NE,38,4.6,4.6,75,0.00,CLR,,0.00,230.0,WeatherDisplay:10.37,2013-08-05 19:43:00,
2013-08-05 15:45:00,82.8,74.1,29.94,East,86,0.0,0.1,75,0.00,CLR,,0.00,218.0,WeatherDisplay:10.37,2013-08-05 19:45:00,
2013-08-05 15:47:00,82.8,74.1,29.94,East,86,0.0,0.0,75,0.00,CLR,,0.00,204.0,WeatherDisplay:10.37,2013-08-05 19:47:00,
2013-08-05 15:50:00,82.7,74.4,29.94,East,87,2.0,2.0,76,0.00,CLR,,0.00,178.0,WeatherDisplay:10.37,2013-08-05 19:50:00,
2013-08-05 15:51:00,82.7,74.4,29.94,East,87,3.5,3.5,76,0.00,CLR,,0.00,169.0,WeatherDisplay:10.37,2013-08-05 19:51:00,
2013-08-05 15:52:00,82.7,74.4,29.94,East,87,0.0,0.0,76,0.00,CLR,,0.00,146.0,WeatherDisplay:10.37,2013-08-05 19:52:00,
2013-08-05 15:56:00,82.7,74.4,29.93,East,88,1.2,0.0,76,0.00,CLR,,0.00,134.0,WeatherDisplay:10.37,2013-08-05 19:56:00,
2013-08-05 15:57:00,82.6,74.3,29.93,East,88,3.5,3.5,76,0.00,CLR,,0.00,132.0,WeatherDisplay:10.37,2013-08-05 19:57:00,
2013-08-05 16:01:00,82.4,74.1,29.93,East,90,4.6,4.6,76,0.00,CLR,,0.00,123.0,WeatherDisplay:10.37,2013-08-05 20:01:00,
2013-08-05 16:02:00,82.4,74.5,29.93,East,96,5.0,5.0,77,0.00,CLR,,0.00,120.0,WeatherDisplay:10.37,2013-08-05 20:02:00,
2013-08-05 16:04:00,82.2,74.3,29.93,East,99,3.5,3.5,77,0.00,CLR,,0.00,114.0,WeatherDisplay:10.37,2013-08-05 20:04:00,
2013-08-05 16:07:00,82.1,74.6,29.93,ESE,123,1.2,0.0,78,0.00,CLR,,0.00,107.0,WeatherDisplay:10.37,2013-08-05 20:07:00,
2013-08-05 16:08:00,82.0,74.5,29.93,SE,125,0.0,0.0,78,0.00,CLR,,0.00,105.0,WeatherDisplay:10.37,2013-08-05 20:08:00,
2013-08-05 16:09:00,81.9,74.7,29.93,ESE,115,3.0,3.0,79,0.00,CLR,,0.00,102.0,WeatherDisplay:10.37,2013-08-05 20:09:00,
2013-08-05 16:12:00,81.8,74.6,29.93,ESE,113,0.0,0.0,79,0.00,CLR,,0.00,98.0,WeatherDisplay:10.37,2013-08-05 20:12:00,
2013-08-05 16:13:00,81.8,74.6,29.93,ESE,114,0.0,0.0,79,0.00,CLR,,0.00,97.0,WeatherDisplay:10.37,2013-08-05 20:13:00,
2013-08-05 16:15:00,81.7,74.5,29.92,SSE,155,3.5,0.0,79,0.00,CLR,,0.00,95.0,WeatherDisplay:10.37,2013-08-05 20:15:00,
2013-08-05 16:17:00,81.6,74.5,29.93,SE,144,0.0,0.0,79,0.00,CLR,,0.00,91.0,WeatherDisplay:10.37,2013-08-05 20:17:00,
2013-08-05 16:18:00,81.6,74.5,29.93,SE,136,1.2,0.0,79,0.00,CLR,,0.00,90.0,WeatherDisplay:10.37,2013-08-05 20:18:00,
2013-08-05 16:21:00,81.4,74.3,29.93,East,99,3.5,3.5,79,0.00,CLR,,0.00,83.0,WeatherDisplay:10.37,2013-08-05 20:21:00,
2013-08-05 16:22:00,81.3,74.2,29.93,East,99,4.6,4.6,79,0.00,CLR,,0.00,81.0,WeatherDisplay:10.37,2013-08-05 20:22:00,
2013-08-05 16:23:00,81.2,74.1,29.93,East,99,0.0,0.0,79,0.00,CLR,,0.00,79.0,WeatherDisplay:10.37,2013-08-05 20:23:00,
2013-08-05 16:27:00,81.1,74.0,29.93,East,86,0.0,0.0,79,0.00,CLR,,0.00,70.0,WeatherDisplay:10.37,2013-08-05 20:27:00,
2013-08-05 16:29:00,81.0,73.9,29.93,NE,40,0.0,0.1,79,0.00,CLR,,0.00,67.0,WeatherDisplay:10.37,2013-08-05 20:29:00,
2013-08-05 16:32:00,80.9,73.8,29.94,NE,46,0.0,0.0,79,0.00,CLR,,0.00,56.0,WeatherDisplay:10.37,2013-08-05 20:32:00,
2013-08-05 16:34:00,80.8,73.7,29.94,ENE,65,3.5,3.5,79,0.00,CLR,,0.00,51.0,WeatherDisplay:10.37,2013-08-05 20:34:00,
2013-08-05 16:38:00,80.6,73.9,29.95,WNW,288,3.5,3.5,80,0.00,CLR,,0.00,26.0,WeatherDisplay:10.37,2013-08-05 20:38:00,
2013-08-05 16:39:00,80.6,73.9,29.95,NW,308,11.0,11.0,80,0.00,CLR,,0.00,21.0,WeatherDisplay:10.37,2013-08-05 20:39:00,
2013-08-05 16:43:00,80.3,73.9,29.96,NW,304,11.0,11.0,81,0.00,CLR,,0.00,5.0,WeatherDisplay:10.37,2013-08-05 20:43:00,
2013-08-05 16:44:00,80.0,74.0,29.97,North,355,17.3,17.3,82,0.00,CLR,,0.00,0.0,WeatherDisplay:10.37,2013-08-05 20:44:00,
2013-08-05 16:47:00,78.8,72.8,29.97,NW,308,8.1,8.1,82,0.00,CLR,,0.00,0.0,WeatherDisplay:10.37,2013-08-05 20:47:00,
2013-08-05 16:48:00,78.6,73.0,29.97,WSW,238,8.1,8.1,83,0.00,CLR,,0.00,0.0,WeatherDisplay:10.37,2013-08-05 20:48:00,
2013-08-05 16:49:00,78.1,72.5,29.97,NNW,339,12.7,12.7,83,0.01,RA,,0.01,0.0,WeatherDisplay:10.37,2013-08-05 20:49:00,
2013-08-05 16:50:00,77.9,72.3,29.97,NW,316,12.7,12.7,83,0.01,RA,,0.02,0.0,WeatherDisplay:10.37,2013-08-05 20:50:00,
2013-08-05 16:52:00,76.8,71.6,29.98,West,279,10.4,10.4,84,0.09,RA,,0.09,0.0,WeatherDisplay:10.37,2013-08-05 20:52:00,
2013-08-05 16:54:00,76.2,71.4,29.97,NNW,347,9.2,9.2,85,0.16,RA,,0.16,0.0,WeatherDisplay:10.37,2013-08-05 20:54:00,
2013-08-05 16:55:00,76.0,71.2,29.97,NNW,333,16.0,16.0,85,0.16,RA,,0.18,0.0,WeatherDisplay:10.37,2013-08-05 20:55:00,
2013-08-05 16:58:00,75.3,70.5,29.98,WNW,303,12.7,12.7,85,0.32,RA,,0.35,0.0,WeatherDisplay:10.37,2013-08-05 20:58:00,
2013-08-05 17:00:00,75.1,70.6,29.98,ENE,59,8.1,8.1,86,0.42,RA,,0.44,5.0,WeatherDisplay:10.37,2013-08-05 21:00:00,
2013-08-05 17:01:00,75.1,70.6,29.98,WNW,300,8.1,8.1,86,0.42,RA,,0.44,5.0,WeatherDisplay:10.37,2013-08-05 21:01:00,
2013-08-05 17:02:00,75.0,70.5,29.98,NNW,347,11.5,11.5,86,0.50,RA,,0.52,5.0,WeatherDisplay:10.37,2013-08-05 21:02:00,
2013-08-05 17:03:00,75.0,70.5,29.99,North,355,11.5,11.5,86,0.54,RA,,0.58,5.0,WeatherDisplay:10.37,2013-08-05 21:03:00,
2013-08-05 17:06:00,74.7,70.2,29.98,NNE,24,11.5,11.5,86,0.64,RA,,0.68,5.0,WeatherDisplay:10.37,2013-08-05 21:06:00,
2013-08-05 17:07:00,74.3,69.8,29.98,North,360,6.9,6.9,86,0.72,RA,,0.74,5.0,WeatherDisplay:10.37,2013-08-05 21:07:00,
2013-08-05 17:09:00,74.2,69.7,29.98,North,5,3.5,3.5,86,0.75,RA,,0.76,5.0,WeatherDisplay:10.37,2013-08-05 21:09:00,
2013-08-05 17:11:00,73.9,69.4,29.97,WNW,292,2.3,0.0,86,0.78,RA,,0.80,5.0,WeatherDisplay:10.37,2013-08-05 21:11:00,
2013-08-05 17:14:00,73.6,69.2,29.96,WNW,290,0.0,0.0,86,0.87,RA,,0.87,7.0,WeatherDisplay:10.37,2013-08-05 21:14:00,
2013-08-05 17:15:00,73.5,69.1,29.96,WNW,290,0.0,0.0,86,0.90,RA,,0.90,7.0,WeatherDisplay:10.37,2013-08-05 21:15:00,
2013-08-05 17:16:00,73.5,69.1,29.96,WNW,290,0.0,0.0,86,0.90,RA,,0.94,7.0,WeatherDisplay:10.37,2013-08-05 21:16:00,
2013-08-05 17:19:00,73.2,68.8,29.95,SW,236,0.0,0.0,86,1.00,RA,,1.00,11.0,WeatherDisplay:10.37,2013-08-05 21:19:00,
2013-08-05 17:20:00,73.2,68.8,29.95,SW,236,0.0,0.0,86,1.00,RA,,1.01,11.0,WeatherDisplay:10.37,2013-08-05 21:20:00,
2013-08-05 17:21:00,73.2,68.8,29.94,SW,236,0.0,0.0,86,1.00,RA,,1.01,11.0,WeatherDisplay:10.37,2013-08-05 21:21:00,
2013-08-05 17:25:00,73.1,68.7,29.93,SW,219,0.0,0.0,86,1.06,RA,,1.07,12.0,WeatherDisplay:10.37,2013-08-05 21:25:00,
2013-08-05 17:26:00,73.1,68.7,29.94,SW,219,1.2,0.0,86,1.07,RA,,1.07,12.0,WeatherDisplay:10.37,2013-08-05 21:26:00,
2013-08-05 17:27:00,73.1,68.7,29.93,SW,222,0.0,0.0,86,1.08,RA,,1.08,14.0,WeatherDisplay:10.37,2013-08-05 21:27:00,
2013-08-05 17:28:00,73.1,68.7,29.93,SW,221,0.0,0.0,86,1.08,RA,,1.09,14.0,WeatherDisplay:10.37,2013-08-05 21:28:00,
2013-08-05 17:32:00,73.0,68.6,29.93,SW,216,0.0,0.0,86,1.10,RA,,1.10,14.0,WeatherDisplay:10.37,2013-08-05 21:32:00,
2013-08-05 17:33:00,73.0,68.6,29.93,SW,216,0.0,0.0,86,1.10,RA,,1.11,16.0,WeatherDisplay:10.37,2013-08-05 21:33:00,
2013-08-05 17:39:00,73.1,68.7,29.94,SW,216,1.2,0.0,86,1.11,RA,,1.12,16.0,WeatherDisplay:10.37,2013-08-05 21:39:00,
2013-08-05 17:44:00,73.2,68.8,29.95,East,82,0.0,0.0,86,1.12,RA,,1.12,18.0,WeatherDisplay:10.37,2013-08-05 21:44:00,
2013-08-05 17:45:00,73.2,68.8,29.95,East,83,0.0,0.0,86,1.12,RA,,1.12,18.0,WeatherDisplay:10.37,2013-08-05 21:45:00,
2013-08-05 17:50:00,73.3,68.9,29.94,East,82,0.0,0.0,86,1.11,CLR,,1.12,21.0,WeatherDisplay:10.37,2013-08-05 21:50:00,
2013-08-05 17:53:00,73.4,69.0,29.94,East,82,0.0,0.0,86,1.00,CLR,,1.12,26.0,WeatherDisplay:10.37,2013-08-05 21:53:00,
2013-08-05 17:55:00,73.5,69.1,29.94,East,82,0.0,0.0,86,0.92,CLR,,1.12,28.0,WeatherDisplay:10.37,2013-08-05 21:55:00,
2013-08-05 17:57:00,73.5,69.1,29.94,East,82,0.0,0.0,86,0.86,CLR,,1.12,32.0,WeatherDisplay:10.37,2013-08-05 21:57:00,
2013-08-05 17:58:00,73.5,69.1,29.94,East,86,0.0,0.0,86,0.77,CLR,,1.12,33.0,WeatherDisplay:10.37,2013-08-05 21:58:00,
2013-08-05 18:01:00,73.4,69.0,29.94,SSE,149,0.0,0.0,86,0.66,CLR,,1.12,40.0,WeatherDisplay:10.37,2013-08-05 22:01:00,
2013-08-05 18:02:00,73.4,69.0,29.94,SSE,149,0.0,0.0,86,0.62,CLR,,1.12,42.0,WeatherDisplay:10.37,2013-08-05 22:02:00,
2013-08-05 18:04:00,73.5,69.1,29.95,SSE,149,0.0,0.0,86,0.58,CLR,,1.12,47.0,WeatherDisplay:10.37,2013-08-05 22:04:00,
2013-08-05 18:07:00,73.5,69.1,29.95,SSE,148,0.0,0.0,86,0.40,CLR,,1.12,53.0,WeatherDisplay:10.37,2013-08-05 22:07:00,
2013-08-05 18:10:00,73.6,69.2,29.95,SSE,149,0.0,0.0,86,0.34,CLR,,1.12,58.0,WeatherDisplay:10.37,2013-08-05 22:10:00,
2013-08-05 18:13:00,73.7,69.2,29.94,SSE,149,0.0,0.0,86,0.26,CLR,,1.12,62.0,WeatherDisplay:10.37,2013-08-05 22:13:00,
2013-08-05 18:15:00,73.7,69.2,29.94,SSE,149,0.0,0.0,86,0.22,CLR,,1.12,63.0,WeatherDisplay:10.37,2013-08-05 22:15:00,
2013-08-05 18:18:00,73.7,69.2,29.94,SSE,148,0.0,0.0,86,0.13,CLR,,1.12,63.0,WeatherDisplay:10.37,2013-08-05 22:18:00,
2013-08-05 18:20:00,73.8,69.3,29.94,SSE,149,0.0,0.0,86,0.12,CLR,,1.12,60.0,WeatherDisplay:10.37,2013-08-05 22:20:00,
2013-08-05 18:23:00,73.9,69.4,29.94,SSE,149,0.0,0.0,86,0.08,CLR,,1.12,63.0,WeatherDisplay:10.37,2013-08-05 22:23:00,
2013-08-05 18:25:00,74.0,69.5,29.95,SSE,148,1.2,0.0,86,0.05,CLR,,1.12,69.0,WeatherDisplay:10.37,2013-08-05 22:25:00,
2013-08-05 18:26:00,74.0,69.5,29.95,SSE,148,1.2,0.0,86,0.05,CLR,,1.12,69.0,WeatherDisplay:10.37,2013-08-05 22:26:00,
2013-08-05 18:28:00,74.1,69.6,29.95,SSE,148,0.0,0.0,86,0.04,CLR,,1.12,79.0,WeatherDisplay:10.37,2013-08-05 22:28:00,
2013-08-05 18:29:00,74.1,69.6,29.95,SSE,148,0.0,0.0,86,0.03,CLR,,1.12,79.0,WeatherDisplay:10.37,2013-08-05 22:29:00,
2013-08-05 18:31:00,74.2,69.7,29.95,SSE,148,0.0,0.0,86,0.02,CLR,,1.12,81.0,WeatherDisplay:10.37,2013-08-05 22:31:00,
2013-08-05 18:34:00,74.2,69.7,29.95,SSE,148,0.0,0.0,86,0.01,CLR,,1.12,77.0,WeatherDisplay:10.37,2013-08-05 22:34:00,
2013-08-05 18:36:00,74.2,69.7,29.95,SSE,148,0.0,0.0,86,0.01,CLR,,1.12,76.0,WeatherDisplay:10.37,2013-08-05 22:36:00,
2013-08-05 18:40:00,74.2,69.7,29.95,SSE,148,0.0,0.0,86,0.00,CLR,,1.12,63.0,WeatherDisplay:10.37,2013-08-05 22:40:00,
2013-08-05 18:42:00,74.2,69.7,29.95,SSE,148,0.0,0.0,86,0.00,CLR,,1.12,49.0,WeatherDisplay:10.37,2013-08-05 22:42:00,
2013-08-05 18:47:00,74.2,69.7,29.96,SSE,148,0.0,0.0,86,0.00,CLR,,1.12,40.0,WeatherDisplay:10.37,2013-08-05 22:47:00,
2013-08-05 18:48:00,74.2,69.7,29.96,SSE,148,1.2,0.0,86,0.00,CLR,,1.12,39.0,WeatherDisplay:10.37,2013-08-05 22:48:00,
2013-08-05 18:52:00,74.0,69.5,29.96,SE,140,0.0,0.0,86,0.00,CLR,,1.12,33.0,WeatherDisplay:10.37,2013-08-05 22:52:00,
2013-08-05 18:53:00,73.9,69.4,29.96,SE,138,3.5,3.5,86,0.00,CLR,,1.12,32.0,WeatherDisplay:10.37,2013-08-05 22:53:00,
2013-08-05 18:54:00,73.9,69.4,29.96,SE,138,0.0,0.0,86,0.00,CLR,,1.12,30.0,WeatherDisplay:10.37,2013-08-05 22:54:00,
2013-08-05 18:58:00,73.8,69.3,29.96,SE,138,0.0,0.0,86,0.00,CLR,,1.12,35.0,WeatherDisplay:10.37,2013-08-05 22:58:00,
2013-08-05 18:59:00,73.8,69.3,29.96,SE,138,0.0,0.0,86,0.00,CLR,,1.12,35.0,WeatherDisplay:10.37,2013-08-05 22:59:00,
2013-08-05 19:03:00,73.8,69.3,29.96,SE,138,0.0,0.0,86,0.00,CLR,,1.12,32.0,WeatherDisplay:10.37,2013-08-05 23:03:00,
2013-08-05 19:04:00,73.9,69.4,29.96,SE,138,0.0,0.0,86,0.00,CLR,,1.12,32.0,WeatherDisplay:10.37,2013-08-05 23:04:00,
2013-08-05 19:09:00,73.9,69.4,29.96,South,186,2.3,0.0,86,0.00,CLR,,1.12,28.0,WeatherDisplay:10.37,2013-08-05 23:09:00,
2013-08-05 19:11:00,74.0,69.5,29.96,South,186,0.0,0.0,86,0.00,CLR,,1.12,26.0,WeatherDisplay:10.37,2013-08-05 23:11:00,
2013-08-05 19:14:00,74.0,69.5,29.96,South,184,0.0,0.7,86,0.00,CLR,,1.12,25.0,WeatherDisplay:10.37,2013-08-05 23:14:00,
2013-08-05 19:17:00,73.9,69.4,29.96,South,184,0.0,0.0,86,0.00,CLR,,1.12,25.0,WeatherDisplay:10.37,2013-08-05 23:17:00,
2013-08-05 19:19:00,74.0,69.5,29.96,South,187,1.2,0.0,86,0.00,CLR,,1.12,25.0,WeatherDisplay:10.37,2013-08-05 23:19:00,
2013-08-05 19:20:00,74.0,69.5,29.96,South,187,0.0,0.0,86,0.00,CLR,,1.12,25.0,WeatherDisplay:10.37,2013-08-05 23:20:00,
2013-08-05 19:22:00,74.0,69.5,29.96,South,187,0.0,0.0,86,0.00,CLR,,1.12,23.0,WeatherDisplay:10.37,2013-08-05 23:22:00,
2013-08-05 19:26:00,74.1,69.6,29.96,South,187,0.0,0.0,86,0.00,CLR,,1.12,19.0,WeatherDisplay:10.37,2013-08-05 23:26:00,
2013-08-05 19:27:00,74.1,69.6,29.96,South,187,0.0,0.0,86,0.00,CLR,,1.12,18.0,WeatherDisplay:10.37,2013-08-05 23:27:00,
2013-08-05 19:28:00,74.1,69.6,29.97,South,187,0.0,0.0,86,0.00,CLR,,1.12,18.0,WeatherDisplay:10.37,2013-08-05 23:28:00,
2013-08-05 19:32:00,74.2,69.7,29.97,SSW,192,3.5,3.5,86,0.00,CLR,,1.12,16.0,WeatherDisplay:10.37,2013-08-05 23:32:00,
2013-08-05 19:33:00,74.2,69.7,29.97,SSW,210,3.5,3.5,86,0.00,CLR,,1.12,16.0,WeatherDisplay:10.37,2013-08-05 23:33:00,
2013-08-05 19:34:00,74.2,69.7,29.97,SSW,210,0.0,0.0,86,0.00,CLR,,1.12,16.0,WeatherDisplay:10.37,2013-08-05 23:34:00,
2013-08-05 19:38:00,74.2,69.7,29.97,South,190,1.2,0.0,86,0.00,CLR,,1.12,16.0,WeatherDisplay:10.37,2013-08-05 23:38:00,
2013-08-05 19:39:00,74.2,69.7,29.97,South,191,0.0,0.0,86,0.00,CLR,,1.12,16.0,WeatherDisplay:10.37,2013-08-05 23:39:00,
2013-08-05 19:43:00,74.2,69.7,29.97,SSW,202,4.6,4.6,86,0.00,CLR,,1.12,12.0,WeatherDisplay:10.37,2013-08-05 23:43:00,
2013-08-05 19:44:00,74.2,69.7,29.97,SSW,198,4.6,4.6,86,0.00,CLR,,1.12,12.0,WeatherDisplay:10.37,2013-08-05 23:44:00,
2013-08-05 19:46:00,74.2,69.7,29.97,SSW,198,0.0,0.0,86,0.00,CLR,,1.12,11.0,WeatherDisplay:10.37,2013-08-05 23:46:00,
2013-08-05 19:48:00,74.2,69.7,29.97,SW,217,4.6,4.6,86,0.00,CLR,,1.12,9.0,WeatherDisplay:10.37,2013-08-05 23:48:00,
2013-08-05 19:49:00,74.2,69.7,29.97,SW,221,3.5,3.5,86,0.00,CLR,,1.12,9.0,WeatherDisplay:10.37,2013-08-05 23:49:00,
2013-08-05 19:50:00,74.2,69.7,29.97,SW,221,3.5,3.5,86,0.00,CLR,,1.12,9.0,WeatherDisplay:10.37,2013-08-05 23:50:00,
2013-08-05 19:51:00,74.2,69.7,29.97,South,191,3.5,3.5,86,0.00,CLR,,1.12,7.0,WeatherDisplay:10.37,2013-08-05 23:51:00,
2013-08-05 19:53:00,74.3,69.8,29.97,SSW,196,6.9,6.9,86,0.00,CLR,,1.12,5.0,WeatherDisplay:10.37,2013-08-05 23:53:00,
2013-08-05 19:54:00,74.3,69.8,29.97,SSW,211,10.4,10.4,86,0.00,CLR,,1.12,5.0,WeatherDisplay:10.37,2013-08-05 23:54:00,
2013-08-05 19:55:00,74.4,69.9,29.97,SSW,211,10.4,0.0,86,0.00,CLR,,1.12,5.0,WeatherDisplay:10.37,2013-08-05 23:55:00,
2013-08-05 19:56:00,74.4,69.9,29.97,SW,233,0.0,0.0,86,0.00,CLR,,1.12,5.0,WeatherDisplay:10.37,2013-08-05 23:56:00,
2013-08-05 19:59:00,74.6,70.1,29.97,SSE,159,5.8,5.8,86,0.00,CLR,,1.12,0.0,WeatherDisplay:10.37,2013-08-05 23:59:00,
2013-08-05 20:01:00,74.6,70.1,29.98,SSE,159,0.0,0.0,86,0.00,CLR,,1.12,0.0,WeatherDisplay:10.37,2013-08-06 00:01:00,
2013-08-05 20:02:00,74.6,70.1,29.98,SSW,198,0.0,0.0,86,0.00,CLR,,1.12,0.0,WeatherDisplay:10.37,2013-08-06 00:02:00,
2013-08-05 20:07:00,74.8,70.3,29.98,South,188,0.0,0.0,86,0.00,CLR,,1.12,0.0,WeatherDisplay:10.37,2013-08-06 00:07:00,
2013-08-05 20:08:00,74.8,70.3,29.98,South,188,0.0,0.0,86,0.00,CLR,,1.12,0.0,WeatherDisplay:10.37,2013-08-06 00:08:00,
2013-08-05 20:12:00,74.8,70.3,29.98,SSW,198,3.5,3.5,86,0.00,CLR,,1.12,0.0,WeatherDisplay:10.37,2013-08-06 00:12:00,
2013-08-05 20:13:00,74.7,70.2,29.98,South,182,1.2,0.0,86,0.00,CLR,,1.12,0.0,WeatherDisplay:10.37,2013-08-06 00:13:00,
2013-08-05 20:17:00,74.4,69.9,29.98,SSW,200,6.9,6.9,86,0.00,CLR,,1.12,0.0,WeatherDisplay:10.37,2013-08-06 00:17:00,
2013-08-05 20:19:00,74.4,69.9,29.98,SSW,200,1.0,1.0,86,0.00,CLR,,1.12,0.0,WeatherDisplay:10.37,2013-08-06 00:19:00,
2013-08-05 20:23:00,74.3,69.8,29.98,SSW,213,3.5,3.5,86,0.00,CLR,,1.12,0.0,WeatherDisplay:10.37,2013-08-06 00:23:00,
2013-08-05 20:24:00,74.3,69.8,29.98,SSW,202,3.5,3.5,86,0.00,CLR,,1.12,0.0,WeatherDisplay:10.37,2013-08-06 00:24:00,
2013-08-05 20:29:00,74.2,69.7,29.99,SSW,200,0.0,0.0,86,0.00,CLR,,1.12,0.0,WeatherDisplay:10.37,2013-08-06 00:29:00,
2013-08-05 20:30:00,74.2,69.7,29.99,SSW,201,0.0,0.0,86,0.00,CLR,,1.12,0.0,WeatherDisplay:10.37,2013-08-06 00:30:00,
2013-08-05 20:31:00,74.2,69.7,29.99,SSW,201,0.0,0.0,86,0.00,CLR,,1.12,0.0,WeatherDisplay:10.37,2013-08-06 00:31:00,
2013-08-05 20:34:00,74.2,69.7,29.99,SSW,209,0.0,0.0,86,0.00,CLR,,1.12,0.0,WeatherDisplay:10.37,2013-08-06 00:34:00,
2013-08-05 20:36:00,74.2,69.7,29.99,South,180,0.0,0.0,86,0.00,CLR,,1.12,0.0,WeatherDisplay:10.37,2013-08-06 00:36:00,
2013-08-05 20:37:00,74.2,69.7,29.99,South,180,1.2,0.0,86,0.00,CLR,,1.12,0.0,WeatherDisplay:10.37,2013-08-06 00:37:00,
2013-08-05 20:39:00,74.1,69.6,29.99,South,180,0.0,0.0,86,0.00,CLR,,1.12,0.0,WeatherDisplay:10.37,2013-08-06 00:39:00,
2013-08-05 20:41:00,74.1,69.6,29.99,WSW,258,3.0,3.0,86,0.00,CLR,,1.12,0.0,WeatherDisplay:10.37,2013-08-06 00:41:00,
2013-08-05 20:42:00,74.1,69.6,29.99,SSW,192,3.5,3.5,86,0.00,CLR,,1.12,0.0,WeatherDisplay:10.37,2013-08-06 00:42:00,
2013-08-05 20:45:00,74.0,69.5,29.99,SW,215,3.5,3.5,86,0.00,CLR,,1.12,0.0,WeatherDisplay:10.37,2013-08-06 00:45:00,
2013-08-05 20:48:00,74.0,69.5,29.99,SW,223,3.5,0.0,86,0.00,CLR,,1.12,0.0,WeatherDisplay:10.37,2013-08-06 00:48:00,
2013-08-05 20:50:00,73.9,69.4,30.00,SW,229,1.2,0.0,86,0.00,CLR,,1.12,0.0,WeatherDisplay:10.37,2013-08-06 00:50:00,
2013-08-05 20:54:00,73.9,69.4,30.00,WNW,300,4.6,4.6,86,0.00,CLR,,1.12,0.0,WeatherDisplay:10.37,2013-08-06 00:54:00,
2013-08-05 20:55:00,73.9,69.4,30.00,NNE,14,0.0,0.3,86,0.00,CLR,,1.12,0.0,WeatherDisplay:10.37,2013-08-06 00:55:00,
2013-08-05 21:00:00,74.1,69.6,30.00,West,271,0.0,0.0,86,0.00,CLR,,1.12,0.0,WeatherDisplay:10.37,2013-08-06 01:00:00,
2013-08-05 21:01:00,74.2,69.7,30.00,WNW,288,3.5,3.5,86,0.00,CLR,,1.12,0.0,WeatherDisplay:10.37,2013-08-06 01:01:00,
2013-08-05 21:05:00,74.2,69.7,29.99,WNW,301,0.0,0.0,86,0.00,CLR,,1.12,0.0,WeatherDisplay:10.37,2013-08-06 01:05:00,
2013-08-05 21:06:00,74.2,69.7,29.99,WNW,301,0.0,0.0,86,0.00,CLR,,1.12,0.0,WeatherDisplay:10.37,2013-08-06 01:06:00,
2013-08-05 21:07:00,74.2,69.7,29.99,WNW,300,0.0,0.0,86,0.00,CLR,,1.12,0.0,WeatherDisplay:10.37,2013-08-06 01:07:00,
2013-08-05 21:11:00,74.2,69.7,29.99,West,261,0.0,1.3,86,0.00,CLR,,1.12,0.0,WeatherDisplay:10.37,2013-08-06 01:11:00,
2013-08-05 21:12:00,74.1,69.6,29.99,West,281,3.5,3.5,86,0.00,CLR,,1.12,0.0,WeatherDisplay:10.37,2013-08-06 01:12:00,
2013-08-05 21:13:00,74.2,69.7,29.99,SSW,193,3.5,3.5,86,0.00,CLR,,1.12,0.0,WeatherDisplay:10.37,2013-08-06 01:13:00,
2013-08-05 21:16:00,74.1,69.6,29.99,WNW,284,3.5,3.5,86,0.00,CLR,,1.12,0.0,WeatherDisplay:10.37,2013-08-06 01:16:00,
2013-08-05 21:17:00,74.2,69.7,29.99,WNW,284,0.0,0.0,86,0.00,CLR,,1.12,0.0,WeatherDisplay:10.37,2013-08-06 01:17:00,
2013-08-05 21:18:00,74.1,69.6,29.99,WNW,283,0.0,0.0,86,0.00,CLR,,1.12,0.0,WeatherDisplay:10.37,2013-08-06 01:18:00,
2013-08-05 21:19:00,74.1,69.6,29.99,WNW,283,0.0,0.0,86,0.00,CLR,,1.12,0.0,WeatherDisplay:10.37,2013-08-06 01:19:00,
2013-08-05 21:22:00,74.2,69.7,29.99,WNW,283,1.2,0.0,86,0.00,CLR,,1.12,0.0,WeatherDisplay:10.37,2013-08-06 01:22:00,
2013-08-05 21:23:00,74.2,69.7,29.98,WNW,284,0.0,0.0,86,0.00,CLR,,1.12,0.0,WeatherDisplay:10.37,2013-08-06 01:23:00,
2013-08-05 21:24:00,74.2,69.7,29.98,WNW,284,0.0,0.0,86,0.00,CLR,,1.12,0.0,WeatherDisplay:10.37,2013-08-06 01:24:00,
2013-08-05 21:28:00,74.2,69.7,29.98,West,274,0.0,0.0,86,0.00,CLR,,1.12,0.0,WeatherDisplay:10.37,2013-08-06 01:28:00,
2013-08-05 21:30:00,74.2,69.7,29.98,West,278,2.3,0.0,86,0.00,CLR,,1.12,0.0,WeatherDisplay:10.37,2013-08-06 01:30:00,
2013-08-05 21:34:00,74.1,69.6,29.97,West,278,0.0,0.0,86,0.00,CLR,,1.12,0.0,WeatherDisplay:10.37,2013-08-06 01:34:00,
2013-08-05 21:36:00,74.1,69.6,29.97,West,278,0.0,0.0,86,0.00,CLR,,1.12,0.0,WeatherDisplay:10.37,2013-08-06 01:36:00,
2013-08-05 21:39:00,74.0,69.5,29.97,West,278,0.0,0.0,86,0.00,CLR,,1.12,0.0,WeatherDisplay:10.37,2013-08-06 01:39:00,
2013-08-05 21:40:00,74.0,69.5,29.97,West,278,0.0,0.0,86,0.00,CLR,,1.12,0.0,WeatherDisplay:10.37,2013-08-06 01:40:00,
2013-08-05 21:44:00,73.9,69.4,29.97,West,278,0.0,0.0,86,0.00,CLR,,1.12,0.0,WeatherDisplay:10.37,2013-08-06 01:44:00,
2013-08-05 21:45:00,73.9,69.4,29.97,West,278,0.0,0.0,86,0.00,CLR,,1.12,0.0,WeatherDisplay:10.37,2013-08-06 01:45:00,
2013-08-05 21:46:00,73.9,69.4,29.97,West,278,0.0,0.0,86,0.00,CLR,,1.12,0.0,WeatherDisplay:10.37,2013-08-06 01:46:00,
2013-08-05 21:50:00,73.9,69.4,29.98,West,278,0.0,0.0,86,0.00,CLR,,1.12,0.0,WeatherDisplay:10.37,2013-08-06 01:50:00,
2013-08-05 21:52:00,73.9,69.4,29.98,West,278,0.0,0.0,86,0.00,CLR,,1.12,0.0,WeatherDisplay:10.37,2013-08-06 01:52:00,
2013-08-05 21:55:00,73.9,69.4,29.98,West,278,0.0,0.0,86,0.00,CLR,,1.12,0.0,WeatherDisplay:10.37,2013-08-06 01:55:00,
2013-08-05 21:57:00,73.9,69.4,29.98,West,278,0.0,0.0,86,0.00,CLR,,1.12,0.0,WeatherDisplay:10.37,2013-08-06 01:57:00,
2013-08-05 21:58:00,73.9,69.4,29.98,West,278,0.0,0.0,86,0.00,CLR,,1.12,0.0,WeatherDisplay:10.37,2013-08-06 01:58:00,
2013-08-05 22:00:00,73.9,69.4,29.98,West,278,0.0,0.0,86,0.00,CLR,,1.12,0.0,WeatherDisplay:10.37,2013-08-06 02:00:00,
2013-08-05 22:03:00,73.9,69.4,29.98,West,278,0.0,0.0,86,0.00,CLR,,1.12,0.0,WeatherDisplay:10.37,2013-08-06 02:03:00,
2013-08-05 22:04:00,73.9,69.4,29.98,West,279,0.0,0.0,86,0.00,CLR,,1.12,0.0,WeatherDisplay:10.37,2013-08-06 02:04:00,
2013-08-05 22:05:00,74.0,69.5,29.98,West,279,0.0,0.1,86,0.00,CLR,,1.12,0.0,WeatherDisplay:10.37,2013-08-06 02:05:00,
2013-08-05 22:08:00,74.0,69.5,29.98,West,279,1.2,1.2,86,0.00,CLR,,1.12,0.0,WeatherDisplay:10.37,2013-08-06 02:08:00,
2013-08-05 22:09:00,74.0,69.5,29.98,West,279,1.2,0.0,86,0.00,CLR,,1.12,0.0,WeatherDisplay:10.37,2013-08-06 02:09:00,
2013-08-05 22:10:00,74.0,69.5,29.98,West,279,0.0,0.0,86,0.00,CLR,,1.12,0.0,WeatherDisplay:10.37,2013-08-06 02:10:00,
2013-08-05 22:13:00,74.0,69.5,29.98,West,279,0.0,0.0,86,0.00,CLR,,1.12,0.0,WeatherDisplay:10.37,2013-08-06 02:13:00,
2013-08-05 22:15:00,74.0,69.5,29.97,WSW,240,3.5,3.5,86,0.00,CLR,,1.12,0.0,WeatherDisplay:10.37,2013-08-06 02:15:00,
2013-08-05 22:18:00,74.1,69.6,29.97,WSW,240,0.0,0.0,86,0.00,CLR,,1.12,0.0,WeatherDisplay:10.37,2013-08-06 02:18:00,
2013-08-05 22:20:00,74.0,69.5,29.97,WSW,240,0.0,0.0,86,0.00,CLR,,1.12,0.0,WeatherDisplay:10.37,2013-08-06 02:20:00,
2013-08-05 22:21:00,74.1,69.6,29.97,WSW,240,0.0,0.0,86,0.00,CLR,,1.12,0.0,WeatherDisplay:10.37,2013-08-06 02:21:00,
2013-08-05 22:23:00,74.0,69.5,29.97,WSW,240,0.0,0.0,86,0.00,CLR,,1.12,0.0,WeatherDisplay:10.37,2013-08-06 02:23:00,
2013-08-05 22:24:00,74.0,69.5,29.97,WSW,240,0.0,0.0,86,0.00,CLR,,1.12,0.0,WeatherDisplay:10.37,2013-08-06 02:24:00,
2013-08-05 22:27:00,74.0,69.5,29.97,WSW,240,0.0,0.0,86,0.00,CLR,,1.12,0.0,WeatherDisplay:10.37,2013-08-06 02:27:00,
2013-08-05 22:28:00,74.0,69.5,29.98,WSW,240,0.0,0.0,86,0.00,CLR,,1.12,0.0,WeatherDisplay:10.37,2013-08-06 02:28:00,
2013-08-05 22:29:00,74.0,69.5,29.98,WSW,240,0.0,0.0,86,0.00,CLR,,1.12,0.0,WeatherDisplay:10.37,2013-08-06 02:29:00,
2013-08-05 22:32:00,74.0,69.5,29.98,WSW,240,0.0,0.0,86,0.00,CLR,,1.12,0.0,WeatherDisplay:10.37,2013-08-06 02:32:00,
2013-08-05 22:33:00,74.0,69.5,29.98,WSW,240,0.0,0.0,86,0.00,CLR,,1.12,0.0,WeatherDisplay:10.37,2013-08-06 02:33:00,
2013-08-05 22:35:00,74.0,69.5,29.98,WSW,240,0.0,0.0,86,0.00,CLR,,1.12,0.0,WeatherDisplay:10.37,2013-08-06 02:35:00,
2013-08-05 22:38:00,74.0,69.5,29.98,WSW,240,0.0,0.0,86,0.00,CLR,,1.12,0.0,WeatherDisplay:10.37,2013-08-06 02:38:00,
2013-08-05 22:39:00,74.0,69.5,29.98,WSW,240,0.0,0.0,86,0.00,CLR,,1.12,0.0,WeatherDisplay:10.37,2013-08-06 02:39:00,
2013-08-05 22:40:00,73.9,69.4,29.98,WSW,240,0.0,0.0,86,0.00,CLR,,1.12,0.0,WeatherDisplay:10.37,2013-08-06 02:40:00,
2013-08-05 22:43:00,73.9,69.4,29.98,WNW,285,1.2,0.0,86,0.00,CLR,,1.12,0.0,WeatherDisplay:10.37,2013-08-06 02:43:00,
2013-08-05 22:45:00,73.9,69.4,29.98,WNW,285,0.0,0.0,86,0.00,CLR,,1.12,0.0,WeatherDisplay:10.37,2013-08-06 02:45:00,
2013-08-05 22:49:00,73.9,69.4,29.98,WSW,242,0.0,0.0,86,0.00,CLR,,1.12,0.0,WeatherDisplay:10.37,2013-08-06 02:49:00,
2013-08-05 22:50:00,74.0,69.5,29.98,WSW,242,0.0,0.0,86,0.00,CLR,,1.12,0.0,WeatherDisplay:10.37,2013-08-06 02:50:00,
2013-08-05 22:51:00,73.9,69.4,29.98,WSW,242,0.0,0.0,86,0.00,CLR,,1.12,0.0,WeatherDisplay:10.37,2013-08-06 02:51:00,
2013-08-05 22:55:00,73.9,69.4,29.98,West,263,0.0,0.0,86,0.00,CLR,,1.12,0.0,WeatherDisplay:10.37,2013-08-06 02:55:00,
2013-08-05 22:56:00,73.9,69.4,29.98,West,263,0.0,0.0,86,0.00,CLR,,1.12,0.0,WeatherDisplay:10.37,2013-08-06 02:56:00,
2013-08-05 23:01:00,73.9,69.4,29.98,West,263,0.0,0.0,86,0.00,CLR,,1.12,0.0,WeatherDisplay:10.37,2013-08-06 03:01:00,
2013-08-05 23:06:00,73.9,69.4,29.98,West,263,0.0,0.0,86,0.00,CLR,,1.12,0.0,WeatherDisplay:10.37,2013-08-06 03:06:00,
2013-08-05 23:07:00,73.9,69.4,29.98,West,263,0.0,0.0,86,0.00,CLR,,1.12,0.0,WeatherDisplay:10.37,2013-08-06 03:07:00,
2013-08-05 23:12:00,73.8,69.3,29.98,West,264,0.0,0.0,86,0.00,CLR,,1.12,0.0,WeatherDisplay:10.37,2013-08-06 03:12:00,
2013-08-05 23:13:00,73.8,69.3,29.98,West,264,0.0,0.0,86,0.00,CLR,,1.12,0.0,WeatherDisplay:10.37,2013-08-06 03:13:00,
2013-08-05 23:14:00,73.8,69.3,29.98,West,263,0.0,0.0,86,0.00,CLR,,1.12,0.0,WeatherDisplay:10.37,2013-08-06 03:14:00,
2013-08-05 23:17:00,73.7,69.2,29.98,West,264,0.0,0.0,86,0.00,CLR,,1.12,0.0,WeatherDisplay:10.37,2013-08-06 03:17:00,
2013-08-05 23:19:00,73.8,69.3,29.98,West,264,0.0,0.0,86,0.00,CLR,,1.12,0.0,WeatherDisplay:10.37,2013-08-06 03:19:00,
2013-08-05 23:21:00,73.7,69.2,29.98,West,264,0.0,0.0,86,0.00,CLR,,1.12,0.0,WeatherDisplay:10.37,2013-08-06 03:21:00,
2013-08-05 23:22:00,73.7,69.2,29.98,West,263,0.0,0.0,86,0.00,CLR,,1.12,0.0,WeatherDisplay:10.37,2013-08-06 03:22:00,
2013-08-05 23:24:00,73.7,69.2,29.98,West,263,0.0,0.0,86,0.00,CLR,,1.12,0.0,WeatherDisplay:10.37,2013-08-06 03:24:00,
2013-08-05 23:27:00,73.7,69.2,29.98,West,264,0.0,0.0,86,0.00,CLR,,1.12,0.0,WeatherDisplay:10.37,2013-08-06 03:27:00,
2013-08-05 23:29:00,73.7,69.2,29.98,West,263,0.0,0.0,86,0.00,CLR,,1.12,0.0,WeatherDisplay:10.37,2013-08-06 03:29:00,
2013-08-05 23:32:00,73.6,69.2,29.98,West,263,0.0,0.0,86,0.00,CLR,,1.12,0.0,WeatherDisplay:10.37,2013-08-06 03:32:00,
2013-08-05 23:34:00,73.6,69.2,29.97,West,263,0.0,0.0,86,0.00,CLR,,1.12,0.0,WeatherDisplay:10.37,2013-08-06 03:34:00,
2013-08-05 23:38:00,73.5,69.1,29.97,West,263,2.0,2.0,86,0.00,CLR,,1.12,0.0,WeatherDisplay:10.37,2013-08-06 03:38:00,
2013-08-05 23:39:00,73.5,69.1,29.97,West,263,3.5,3.5,86,0.00,CLR,,1.12,0.0,WeatherDisplay:10.37,2013-08-06 03:39:00,
2013-08-05 23:40:00,73.5,69.1,29.97,West,263,0.0,0.0,86,0.00,CLR,,1.12,0.0,WeatherDisplay:10.37,2013-08-06 03:40:00,
2013-08-05 23:44:00,73.5,69.1,29.97,West,263,0.0,0.0,86,0.00,CLR,,1.12,0.0,WeatherDisplay:10.37,2013-08-06 03:44:00,
2013-08-05 23:45:00,73.5,69.1,29.97,West,263,0.0,0.0,86,0.00,CLR,,1.12,0.0,WeatherDisplay:10.37,2013-08-06 03:45:00,
2013-08-05 23:49:00,73.5,69.1,29.96,West,263,0.0,0.0,86,0.00,CLR,,1.12,0.0,WeatherDisplay:10.37,2013-08-06 03:49:00,
2013-08-05 23:51:00,73.6,69.2,29.96,West,263,0.0,0.0,86,0.00,CLR,,1.12,0.0,WeatherDisplay:10.37,2013-08-06 03:51:00,
2013-08-05 23:54:00,73.5,69.1,29.96,West,263,0.0,0.0,86,0.00,RA,,0.00,0.0,WeatherDisplay:10.37,2013-08-06 03:54:00,
2013-08-05 23:56:00,73.5,69.1,29.96,West,263,1.2,0.0,86,0.00,RA,,0.00,0.0,WeatherDisplay:10.37,2013-08-06 03:56:00,